<?xml version="1.0" encoding="UTF-8" standalone="no" ?>
<gpx xmlns="http://www.topografix.com/GPX/1/1" xmlns:xsi="http://www.w3.org/2001/XMLSchema-instance" xsi:schemaLocation="http://www.topografix.com/GPX/1/1 http://www.topografix.com/GPX/1/1/gpx.xsd" version="1.1" creator="VisuGPX - https://www.visugpx.com">
  <metadata>
    <name>Mont-Rose - Marseilleveyre</name>
    <desc><![CDATA[20 avril 2016]]></desc>
  </metadata>
  <trk>
    <name><![CDATA[APR-20-16 05:41:17 PM]]></name>
    <trkseg>
      <trkpt lat="43.23064" lon="5.35474">
        <ele>44.84</ele>
        <time>2016-04-20T12:58:03Z</time>
      </trkpt>
      <trkpt lat="43.23069" lon="5.35472">
        <ele>40.03</ele>
        <time>2016-04-20T12:58:24Z</time>
      </trkpt>
      <trkpt lat="43.23072" lon="5.35479">
        <ele>40.51</ele>
        <time>2016-04-20T12:58:41Z</time>
      </trkpt>
      <trkpt lat="43.23061" lon="5.35492">
        <ele>38.59</ele>
        <time>2016-04-20T12:58:52Z</time>
      </trkpt>
      <trkpt lat="43.2305" lon="5.3549">
        <ele>33.78</ele>
        <time>2016-04-20T12:59:06Z</time>
      </trkpt>
      <trkpt lat="43.23047" lon="5.35489">
        <ele>33.78</ele>
        <time>2016-04-20T12:59:09Z</time>
      </trkpt>
      <trkpt lat="43.23026" lon="5.35485">
        <ele>34.74</ele>
        <time>2016-04-20T12:59:28Z</time>
      </trkpt>
      <trkpt lat="43.23008" lon="5.35477">
        <ele>35.71</ele>
        <time>2016-04-20T12:59:45Z</time>
      </trkpt>
      <trkpt lat="43.22987" lon="5.35465">
        <ele>32.82</ele>
        <time>2016-04-20T13:00:05Z</time>
      </trkpt>
      <trkpt lat="43.22977" lon="5.35456">
        <ele>33.3</ele>
        <time>2016-04-20T13:00:17Z</time>
      </trkpt>
      <trkpt lat="43.22969" lon="5.35449">
        <ele>30.9</ele>
        <time>2016-04-20T13:00:28Z</time>
      </trkpt>
      <trkpt lat="43.22961" lon="5.35445">
        <ele>31.86</ele>
        <time>2016-04-20T13:00:39Z</time>
      </trkpt>
      <trkpt lat="43.22961" lon="5.35445">
        <ele>32.34</ele>
        <time>2016-04-20T13:00:44Z</time>
      </trkpt>
      <trkpt lat="43.22961" lon="5.35453">
        <ele>34.26</ele>
        <time>2016-04-20T13:00:48Z</time>
      </trkpt>
      <trkpt lat="43.2296" lon="5.35466">
        <ele>32.82</ele>
        <time>2016-04-20T13:01:02Z</time>
      </trkpt>
      <trkpt lat="43.22952" lon="5.35471">
        <ele>34.74</ele>
        <time>2016-04-20T13:01:13Z</time>
      </trkpt>
      <trkpt lat="43.22951" lon="5.35471">
        <ele>34.74</ele>
        <time>2016-04-20T13:01:14Z</time>
      </trkpt>
      <trkpt lat="43.2293" lon="5.3547">
        <ele>36.67</ele>
        <time>2016-04-20T13:01:29Z</time>
      </trkpt>
      <trkpt lat="43.22919" lon="5.35472">
        <ele>36.67</ele>
        <time>2016-04-20T13:01:41Z</time>
      </trkpt>
      <trkpt lat="43.2291" lon="5.3548">
        <ele>36.67</ele>
        <time>2016-04-20T13:01:52Z</time>
      </trkpt>
      <trkpt lat="43.22906" lon="5.35487">
        <ele>37.15</ele>
        <time>2016-04-20T13:01:58Z</time>
      </trkpt>
      <trkpt lat="43.22894" lon="5.35504">
        <ele>39.55</ele>
        <time>2016-04-20T13:02:15Z</time>
      </trkpt>
      <trkpt lat="43.22881" lon="5.35515">
        <ele>42.44</ele>
        <time>2016-04-20T13:02:29Z</time>
      </trkpt>
      <trkpt lat="43.22874" lon="5.35519">
        <ele>44.36</ele>
        <time>2016-04-20T13:02:36Z</time>
      </trkpt>
      <trkpt lat="43.22862" lon="5.35526">
        <ele>46.76</ele>
        <time>2016-04-20T13:02:48Z</time>
      </trkpt>
      <trkpt lat="43.2285" lon="5.35533">
        <ele>48.68</ele>
        <time>2016-04-20T13:03:01Z</time>
      </trkpt>
      <trkpt lat="43.22836" lon="5.35539">
        <ele>50.13</ele>
        <time>2016-04-20T13:03:16Z</time>
      </trkpt>
      <trkpt lat="43.22835" lon="5.3554">
        <ele>50.61</ele>
        <time>2016-04-20T13:03:17Z</time>
      </trkpt>
      <trkpt lat="43.22826" lon="5.35541">
        <ele>50.13</ele>
        <time>2016-04-20T13:03:27Z</time>
      </trkpt>
      <trkpt lat="43.22816" lon="5.35526">
        <ele>51.57</ele>
        <time>2016-04-20T13:03:43Z</time>
      </trkpt>
      <trkpt lat="43.22806" lon="5.35502">
        <ele>53.01</ele>
        <time>2016-04-20T13:04:00Z</time>
      </trkpt>
      <trkpt lat="43.22798" lon="5.35491">
        <ele>54.93</ele>
        <time>2016-04-20T13:04:10Z</time>
      </trkpt>
      <trkpt lat="43.22794" lon="5.35492">
        <ele>54.45</ele>
        <time>2016-04-20T13:04:14Z</time>
      </trkpt>
      <trkpt lat="43.22792" lon="5.35496">
        <ele>53.97</ele>
        <time>2016-04-20T13:04:18Z</time>
      </trkpt>
      <trkpt lat="43.22784" lon="5.35519">
        <ele>55.89</ele>
        <time>2016-04-20T13:04:38Z</time>
      </trkpt>
      <trkpt lat="43.2277" lon="5.35533">
        <ele>58.3</ele>
        <time>2016-04-20T13:04:58Z</time>
      </trkpt>
      <trkpt lat="43.22754" lon="5.35537">
        <ele>60.7</ele>
        <time>2016-04-20T13:05:17Z</time>
      </trkpt>
      <trkpt lat="43.22741" lon="5.35533">
        <ele>62.14</ele>
        <time>2016-04-20T13:05:35Z</time>
      </trkpt>
      <trkpt lat="43.22733" lon="5.35524">
        <ele>63.58</ele>
        <time>2016-04-20T13:05:50Z</time>
      </trkpt>
      <trkpt lat="43.22733" lon="5.35524">
        <ele>63.58</ele>
        <time>2016-04-20T13:06:06Z</time>
      </trkpt>
      <trkpt lat="43.22723" lon="5.35517">
        <ele>67.43</ele>
        <time>2016-04-20T13:06:22Z</time>
      </trkpt>
      <trkpt lat="43.2272" lon="5.3552">
        <ele>70.31</ele>
        <time>2016-04-20T13:06:27Z</time>
      </trkpt>
      <trkpt lat="43.2272" lon="5.35521">
        <ele>70.79</ele>
        <time>2016-04-20T13:06:40Z</time>
      </trkpt>
      <trkpt lat="43.2272" lon="5.35521">
        <ele>70.79</ele>
        <time>2016-04-20T13:06:53Z</time>
      </trkpt>
      <trkpt lat="43.22712" lon="5.35521">
        <ele>72.72</ele>
        <time>2016-04-20T13:07:08Z</time>
      </trkpt>
      <trkpt lat="43.22711" lon="5.35522">
        <ele>73.2</ele>
        <time>2016-04-20T13:07:21Z</time>
      </trkpt>
      <trkpt lat="43.22699" lon="5.35531">
        <ele>78.97</ele>
        <time>2016-04-20T13:07:35Z</time>
      </trkpt>
      <trkpt lat="43.22697" lon="5.35533">
        <ele>82.33</ele>
        <time>2016-04-20T13:07:46Z</time>
      </trkpt>
      <trkpt lat="43.22697" lon="5.35533">
        <ele>82.33</ele>
        <time>2016-04-20T13:08:10Z</time>
      </trkpt>
      <trkpt lat="43.22701" lon="5.35545">
        <ele>91.94</ele>
        <time>2016-04-20T13:08:32Z</time>
      </trkpt>
      <trkpt lat="43.22703" lon="5.35563">
        <ele>101.08</ele>
        <time>2016-04-20T13:08:45Z</time>
      </trkpt>
      <trkpt lat="43.22703" lon="5.35573">
        <ele>105.4</ele>
        <time>2016-04-20T13:08:58Z</time>
      </trkpt>
      <trkpt lat="43.227" lon="5.35583">
        <ele>108.29</ele>
        <time>2016-04-20T13:09:10Z</time>
      </trkpt>
      <trkpt lat="43.22698" lon="5.35596">
        <ele>110.69</ele>
        <time>2016-04-20T13:09:23Z</time>
      </trkpt>
      <trkpt lat="43.22697" lon="5.35606">
        <ele>111.17</ele>
        <time>2016-04-20T13:09:34Z</time>
      </trkpt>
      <trkpt lat="43.22697" lon="5.35614">
        <ele>111.17</ele>
        <time>2016-04-20T13:09:48Z</time>
      </trkpt>
      <trkpt lat="43.22693" lon="5.35613">
        <ele>108.77</ele>
        <time>2016-04-20T13:11:08Z</time>
      </trkpt>
      <trkpt lat="43.22689" lon="5.3562">
        <ele>106.84</ele>
        <time>2016-04-20T13:12:22Z</time>
      </trkpt>
      <trkpt lat="43.22684" lon="5.35622">
        <ele>106.84</ele>
        <time>2016-04-20T13:12:29Z</time>
      </trkpt>
      <trkpt lat="43.22677" lon="5.35635">
        <ele>108.77</ele>
        <time>2016-04-20T13:12:44Z</time>
      </trkpt>
      <trkpt lat="43.22672" lon="5.35645">
        <ele>111.17</ele>
        <time>2016-04-20T13:12:59Z</time>
      </trkpt>
      <trkpt lat="43.22666" lon="5.35648">
        <ele>112.13</ele>
        <time>2016-04-20T13:13:16Z</time>
      </trkpt>
      <trkpt lat="43.22662" lon="5.35648">
        <ele>114.05</ele>
        <time>2016-04-20T13:13:31Z</time>
      </trkpt>
      <trkpt lat="43.22654" lon="5.35636">
        <ele>116.94</ele>
        <time>2016-04-20T13:13:54Z</time>
      </trkpt>
      <trkpt lat="43.2265" lon="5.35629">
        <ele>118.38</ele>
        <time>2016-04-20T13:14:12Z</time>
      </trkpt>
      <trkpt lat="43.22647" lon="5.35634">
        <ele>119.34</ele>
        <time>2016-04-20T13:14:26Z</time>
      </trkpt>
      <trkpt lat="43.22642" lon="5.35633">
        <ele>121.26</ele>
        <time>2016-04-20T13:15:20Z</time>
      </trkpt>
      <trkpt lat="43.22636" lon="5.35632">
        <ele>122.71</ele>
        <time>2016-04-20T13:15:34Z</time>
      </trkpt>
      <trkpt lat="43.22631" lon="5.35637">
        <ele>123.67</ele>
        <time>2016-04-20T13:15:49Z</time>
      </trkpt>
      <trkpt lat="43.22624" lon="5.35644">
        <ele>129.43</ele>
        <time>2016-04-20T13:16:04Z</time>
      </trkpt>
      <trkpt lat="43.22623" lon="5.35647">
        <ele>130.88</ele>
        <time>2016-04-20T13:16:28Z</time>
      </trkpt>
      <trkpt lat="43.22619" lon="5.35658">
        <ele>133.28</ele>
        <time>2016-04-20T13:17:30Z</time>
      </trkpt>
      <trkpt lat="43.22611" lon="5.35664">
        <ele>134.72</ele>
        <time>2016-04-20T13:17:49Z</time>
      </trkpt>
      <trkpt lat="43.22609" lon="5.35662">
        <ele>138.57</ele>
        <time>2016-04-20T13:18:10Z</time>
      </trkpt>
      <trkpt lat="43.22605" lon="5.35662">
        <ele>139.53</ele>
        <time>2016-04-20T13:18:22Z</time>
      </trkpt>
      <trkpt lat="43.22604" lon="5.35668">
        <ele>140.49</ele>
        <time>2016-04-20T13:18:36Z</time>
      </trkpt>
      <trkpt lat="43.22604" lon="5.35676">
        <ele>142.89</ele>
        <time>2016-04-20T13:18:47Z</time>
      </trkpt>
      <trkpt lat="43.22603" lon="5.35683">
        <ele>145.78</ele>
        <time>2016-04-20T13:18:55Z</time>
      </trkpt>
      <trkpt lat="43.22603" lon="5.35694">
        <ele>147.7</ele>
        <time>2016-04-20T13:19:07Z</time>
      </trkpt>
      <trkpt lat="43.22601" lon="5.35703">
        <ele>150.58</ele>
        <time>2016-04-20T13:19:18Z</time>
      </trkpt>
      <trkpt lat="43.22598" lon="5.35711">
        <ele>154.43</ele>
        <time>2016-04-20T13:19:31Z</time>
      </trkpt>
      <trkpt lat="43.22593" lon="5.35719">
        <ele>156.83</ele>
        <time>2016-04-20T13:19:45Z</time>
      </trkpt>
      <trkpt lat="43.22596" lon="5.35728">
        <ele>156.83</ele>
        <time>2016-04-20T13:20:09Z</time>
      </trkpt>
      <trkpt lat="43.22595" lon="5.35736">
        <ele>158.75</ele>
        <time>2016-04-20T13:20:19Z</time>
      </trkpt>
      <trkpt lat="43.22596" lon="5.35741">
        <ele>159.72</ele>
        <time>2016-04-20T13:20:25Z</time>
      </trkpt>
      <trkpt lat="43.22597" lon="5.35751">
        <ele>162.6</ele>
        <time>2016-04-20T13:20:37Z</time>
      </trkpt>
      <trkpt lat="43.22598" lon="5.35757">
        <ele>164.04</ele>
        <time>2016-04-20T13:20:49Z</time>
      </trkpt>
      <trkpt lat="43.22598" lon="5.35757">
        <ele>164.52</ele>
        <time>2016-04-20T13:21:51Z</time>
      </trkpt>
      <trkpt lat="43.22596" lon="5.35768">
        <ele>165.96</ele>
        <time>2016-04-20T13:22:06Z</time>
      </trkpt>
      <trkpt lat="43.22593" lon="5.35784">
        <ele>166.45</ele>
        <time>2016-04-20T13:22:22Z</time>
      </trkpt>
      <trkpt lat="43.22594" lon="5.35796">
        <ele>169.33</ele>
        <time>2016-04-20T13:22:34Z</time>
      </trkpt>
      <trkpt lat="43.22594" lon="5.35807">
        <ele>173.66</ele>
        <time>2016-04-20T13:22:50Z</time>
      </trkpt>
      <trkpt lat="43.22591" lon="5.35816">
        <ele>173.17</ele>
        <time>2016-04-20T13:23:03Z</time>
      </trkpt>
      <trkpt lat="43.22593" lon="5.35822">
        <ele>176.54</ele>
        <time>2016-04-20T13:23:14Z</time>
      </trkpt>
      <trkpt lat="43.22592" lon="5.3583">
        <ele>177.5</ele>
        <time>2016-04-20T13:23:30Z</time>
      </trkpt>
      <trkpt lat="43.22589" lon="5.3584">
        <ele>179.42</ele>
        <time>2016-04-20T13:23:42Z</time>
      </trkpt>
      <trkpt lat="43.22586" lon="5.35848">
        <ele>182.31</ele>
        <time>2016-04-20T13:23:56Z</time>
      </trkpt>
      <trkpt lat="43.22586" lon="5.35857">
        <ele>185.67</ele>
        <time>2016-04-20T13:24:09Z</time>
      </trkpt>
      <trkpt lat="43.2259" lon="5.35863">
        <ele>188.56</ele>
        <time>2016-04-20T13:24:21Z</time>
      </trkpt>
      <trkpt lat="43.22592" lon="5.35867">
        <ele>193.84</ele>
        <time>2016-04-20T13:24:33Z</time>
      </trkpt>
      <trkpt lat="43.22592" lon="5.35867">
        <ele>193.84</ele>
        <time>2016-04-20T13:24:41Z</time>
      </trkpt>
      <trkpt lat="43.22589" lon="5.3587">
        <ele>196.25</ele>
        <time>2016-04-20T13:24:54Z</time>
      </trkpt>
      <trkpt lat="43.22585" lon="5.35872">
        <ele>199.13</ele>
        <time>2016-04-20T13:25:11Z</time>
      </trkpt>
      <trkpt lat="43.22585" lon="5.35879">
        <ele>202.01</ele>
        <time>2016-04-20T13:25:22Z</time>
      </trkpt>
      <trkpt lat="43.22588" lon="5.35883">
        <ele>202.49</ele>
        <time>2016-04-20T13:25:32Z</time>
      </trkpt>
      <trkpt lat="43.22588" lon="5.35884">
        <ele>202.49</ele>
        <time>2016-04-20T13:25:35Z</time>
      </trkpt>
      <trkpt lat="43.22591" lon="5.3589">
        <ele>207.78</ele>
        <time>2016-04-20T13:25:47Z</time>
      </trkpt>
      <trkpt lat="43.22592" lon="5.35889">
        <ele>208.74</ele>
        <time>2016-04-20T13:26:20Z</time>
      </trkpt>
      <trkpt lat="43.22599" lon="5.35889">
        <ele>214.03</ele>
        <time>2016-04-20T13:27:10Z</time>
      </trkpt>
      <trkpt lat="43.22601" lon="5.35894">
        <ele>216.43</ele>
        <time>2016-04-20T13:27:23Z</time>
      </trkpt>
      <trkpt lat="43.22603" lon="5.35903">
        <ele>219.32</ele>
        <time>2016-04-20T13:27:34Z</time>
      </trkpt>
      <trkpt lat="43.22603" lon="5.35904">
        <ele>219.32</ele>
        <time>2016-04-20T13:27:48Z</time>
      </trkpt>
      <trkpt lat="43.22603" lon="5.35905">
        <ele>219.32</ele>
        <time>2016-04-20T13:29:36Z</time>
      </trkpt>
      <trkpt lat="43.22604" lon="5.35905">
        <ele>219.32</ele>
        <time>2016-04-20T13:31:33Z</time>
      </trkpt>
      <trkpt lat="43.22602" lon="5.35908">
        <ele>216.43</ele>
        <time>2016-04-20T13:31:55Z</time>
      </trkpt>
      <trkpt lat="43.22601" lon="5.35908">
        <ele>215.95</ele>
        <time>2016-04-20T13:32:10Z</time>
      </trkpt>
      <trkpt lat="43.22599" lon="5.35909">
        <ele>214.51</ele>
        <time>2016-04-20T13:32:40Z</time>
      </trkpt>
      <trkpt lat="43.22596" lon="5.35917">
        <ele>216.43</ele>
        <time>2016-04-20T13:32:49Z</time>
      </trkpt>
      <trkpt lat="43.22595" lon="5.35925">
        <ele>218.36</ele>
        <time>2016-04-20T13:32:56Z</time>
      </trkpt>
      <trkpt lat="43.22594" lon="5.35928">
        <ele>218.36</ele>
        <time>2016-04-20T13:32:59Z</time>
      </trkpt>
      <trkpt lat="43.22589" lon="5.35926">
        <ele>217.88</ele>
        <time>2016-04-20T13:33:07Z</time>
      </trkpt>
      <trkpt lat="43.22577" lon="5.35929">
        <ele>219.8</ele>
        <time>2016-04-20T13:33:21Z</time>
      </trkpt>
      <trkpt lat="43.22574" lon="5.35934">
        <ele>222.68</ele>
        <time>2016-04-20T13:33:32Z</time>
      </trkpt>
      <trkpt lat="43.22569" lon="5.35934">
        <ele>225.57</ele>
        <time>2016-04-20T13:33:45Z</time>
      </trkpt>
      <trkpt lat="43.22565" lon="5.35933">
        <ele>228.93</ele>
        <time>2016-04-20T13:34:05Z</time>
      </trkpt>
      <trkpt lat="43.2256" lon="5.35932">
        <ele>232.3</ele>
        <time>2016-04-20T13:34:19Z</time>
      </trkpt>
      <trkpt lat="43.22562" lon="5.35929">
        <ele>237.1</ele>
        <time>2016-04-20T13:34:37Z</time>
      </trkpt>
      <trkpt lat="43.22559" lon="5.35927">
        <ele>240.47</ele>
        <time>2016-04-20T13:34:55Z</time>
      </trkpt>
      <trkpt lat="43.22559" lon="5.35926">
        <ele>240.47</ele>
        <time>2016-04-20T13:35:12Z</time>
      </trkpt>
      <trkpt lat="43.22559" lon="5.35926">
        <ele>240.47</ele>
        <time>2016-04-20T13:35:59Z</time>
      </trkpt>
      <trkpt lat="43.22557" lon="5.35927">
        <ele>239.99</ele>
        <time>2016-04-20T13:37:22Z</time>
      </trkpt>
      <trkpt lat="43.22553" lon="5.35921">
        <ele>242.39</ele>
        <time>2016-04-20T13:37:35Z</time>
      </trkpt>
      <trkpt lat="43.22547" lon="5.35921">
        <ele>241.91</ele>
        <time>2016-04-20T13:37:46Z</time>
      </trkpt>
      <trkpt lat="43.22546" lon="5.35925">
        <ele>245.27</ele>
        <time>2016-04-20T13:38:00Z</time>
      </trkpt>
      <trkpt lat="43.22546" lon="5.35928">
        <ele>246.23</ele>
        <time>2016-04-20T13:38:04Z</time>
      </trkpt>
      <trkpt lat="43.22544" lon="5.35937">
        <ele>249.6</ele>
        <time>2016-04-20T13:38:17Z</time>
      </trkpt>
      <trkpt lat="43.22543" lon="5.35941">
        <ele>250.56</ele>
        <time>2016-04-20T13:38:29Z</time>
      </trkpt>
      <trkpt lat="43.22537" lon="5.3595">
        <ele>252.96</ele>
        <time>2016-04-20T13:38:41Z</time>
      </trkpt>
      <trkpt lat="43.22531" lon="5.35955">
        <ele>254.89</ele>
        <time>2016-04-20T13:38:55Z</time>
      </trkpt>
      <trkpt lat="43.22528" lon="5.35962">
        <ele>255.85</ele>
        <time>2016-04-20T13:39:08Z</time>
      </trkpt>
      <trkpt lat="43.22525" lon="5.35968">
        <ele>256.81</ele>
        <time>2016-04-20T13:39:13Z</time>
      </trkpt>
      <trkpt lat="43.22517" lon="5.35976">
        <ele>257.29</ele>
        <time>2016-04-20T13:39:23Z</time>
      </trkpt>
      <trkpt lat="43.22516" lon="5.3598">
        <ele>257.29</ele>
        <time>2016-04-20T13:39:41Z</time>
      </trkpt>
      <trkpt lat="43.22516" lon="5.3598">
        <ele>257.77</ele>
        <time>2016-04-20T13:40:53Z</time>
      </trkpt>
      <trkpt lat="43.22513" lon="5.35984">
        <ele>258.73</ele>
        <time>2016-04-20T13:42:51Z</time>
      </trkpt>
      <trkpt lat="43.22509" lon="5.35992">
        <ele>261.14</ele>
        <time>2016-04-20T13:43:04Z</time>
      </trkpt>
      <trkpt lat="43.22503" lon="5.36002">
        <ele>263.54</ele>
        <time>2016-04-20T13:43:19Z</time>
      </trkpt>
      <trkpt lat="43.22502" lon="5.36011">
        <ele>265.94</ele>
        <time>2016-04-20T13:43:34Z</time>
      </trkpt>
      <trkpt lat="43.225" lon="5.36013">
        <ele>267.38</ele>
        <time>2016-04-20T13:43:50Z</time>
      </trkpt>
      <trkpt lat="43.22497" lon="5.3602">
        <ele>268.35</ele>
        <time>2016-04-20T13:44:04Z</time>
      </trkpt>
      <trkpt lat="43.22496" lon="5.36026">
        <ele>269.31</ele>
        <time>2016-04-20T13:44:19Z</time>
      </trkpt>
      <trkpt lat="43.22492" lon="5.36023">
        <ele>270.75</ele>
        <time>2016-04-20T13:45:00Z</time>
      </trkpt>
      <trkpt lat="43.22486" lon="5.3602">
        <ele>272.67</ele>
        <time>2016-04-20T13:45:17Z</time>
      </trkpt>
      <trkpt lat="43.2248" lon="5.3602">
        <ele>273.15</ele>
        <time>2016-04-20T13:45:27Z</time>
      </trkpt>
      <trkpt lat="43.22478" lon="5.36022">
        <ele>273.15</ele>
        <time>2016-04-20T13:45:40Z</time>
      </trkpt>
      <trkpt lat="43.22474" lon="5.36023">
        <ele>273.63</ele>
        <time>2016-04-20T13:45:50Z</time>
      </trkpt>
      <trkpt lat="43.22463" lon="5.36028">
        <ele>275.07</ele>
        <time>2016-04-20T13:46:05Z</time>
      </trkpt>
      <trkpt lat="43.22455" lon="5.36036">
        <ele>278.44</ele>
        <time>2016-04-20T13:46:19Z</time>
      </trkpt>
      <trkpt lat="43.22454" lon="5.36041">
        <ele>281.8</ele>
        <time>2016-04-20T13:46:32Z</time>
      </trkpt>
      <trkpt lat="43.22449" lon="5.36044">
        <ele>281.8</ele>
        <time>2016-04-20T13:46:38Z</time>
      </trkpt>
      <trkpt lat="43.2244" lon="5.36051">
        <ele>284.21</ele>
        <time>2016-04-20T13:46:51Z</time>
      </trkpt>
      <trkpt lat="43.22432" lon="5.36066">
        <ele>284.69</ele>
        <time>2016-04-20T13:47:04Z</time>
      </trkpt>
      <trkpt lat="43.22426" lon="5.36071">
        <ele>283.73</ele>
        <time>2016-04-20T13:47:11Z</time>
      </trkpt>
      <trkpt lat="43.22427" lon="5.36081">
        <ele>284.21</ele>
        <time>2016-04-20T13:47:21Z</time>
      </trkpt>
      <trkpt lat="43.22421" lon="5.3609">
        <ele>285.65</ele>
        <time>2016-04-20T13:47:33Z</time>
      </trkpt>
      <trkpt lat="43.22424" lon="5.36094">
        <ele>287.09</ele>
        <time>2016-04-20T13:47:46Z</time>
      </trkpt>
      <trkpt lat="43.22423" lon="5.36095">
        <ele>287.09</ele>
        <time>2016-04-20T13:47:56Z</time>
      </trkpt>
      <trkpt lat="43.22419" lon="5.36106">
        <ele>286.61</ele>
        <time>2016-04-20T13:48:09Z</time>
      </trkpt>
      <trkpt lat="43.22414" lon="5.3611">
        <ele>286.61</ele>
        <time>2016-04-20T13:48:15Z</time>
      </trkpt>
      <trkpt lat="43.22409" lon="5.3612">
        <ele>289.01</ele>
        <time>2016-04-20T13:48:26Z</time>
      </trkpt>
      <trkpt lat="43.22407" lon="5.36128">
        <ele>290.94</ele>
        <time>2016-04-20T13:48:37Z</time>
      </trkpt>
      <trkpt lat="43.22406" lon="5.36132">
        <ele>290.46</ele>
        <time>2016-04-20T13:48:40Z</time>
      </trkpt>
      <trkpt lat="43.224" lon="5.36143">
        <ele>290.46</ele>
        <time>2016-04-20T13:48:52Z</time>
      </trkpt>
      <trkpt lat="43.22399" lon="5.36152">
        <ele>291.9</ele>
        <time>2016-04-20T13:49:01Z</time>
      </trkpt>
      <trkpt lat="43.22397" lon="5.36158">
        <ele>294.78</ele>
        <time>2016-04-20T13:49:16Z</time>
      </trkpt>
      <trkpt lat="43.22396" lon="5.36166">
        <ele>297.18</ele>
        <time>2016-04-20T13:49:30Z</time>
      </trkpt>
      <trkpt lat="43.224" lon="5.36168">
        <ele>300.07</ele>
        <time>2016-04-20T13:49:45Z</time>
      </trkpt>
      <trkpt lat="43.22401" lon="5.36171">
        <ele>301.03</ele>
        <time>2016-04-20T13:49:49Z</time>
      </trkpt>
      <trkpt lat="43.22404" lon="5.36175">
        <ele>301.03</ele>
        <time>2016-04-20T13:49:52Z</time>
      </trkpt>
      <trkpt lat="43.22402" lon="5.36189">
        <ele>301.03</ele>
        <time>2016-04-20T13:50:04Z</time>
      </trkpt>
      <trkpt lat="43.22397" lon="5.36189">
        <ele>300.55</ele>
        <time>2016-04-20T13:50:22Z</time>
      </trkpt>
      <trkpt lat="43.22396" lon="5.3619">
        <ele>300.55</ele>
        <time>2016-04-20T13:50:23Z</time>
      </trkpt>
      <trkpt lat="43.22393" lon="5.36191">
        <ele>300.55</ele>
        <time>2016-04-20T13:50:26Z</time>
      </trkpt>
      <trkpt lat="43.22387" lon="5.36199">
        <ele>301.51</ele>
        <time>2016-04-20T13:50:37Z</time>
      </trkpt>
      <trkpt lat="43.22387" lon="5.36204">
        <ele>301.03</ele>
        <time>2016-04-20T13:50:42Z</time>
      </trkpt>
      <trkpt lat="43.22373" lon="5.36205">
        <ele>298.63</ele>
        <time>2016-04-20T13:50:54Z</time>
      </trkpt>
      <trkpt lat="43.22371" lon="5.36208">
        <ele>299.11</ele>
        <time>2016-04-20T13:51:01Z</time>
      </trkpt>
      <trkpt lat="43.22366" lon="5.36211">
        <ele>298.63</ele>
        <time>2016-04-20T13:51:08Z</time>
      </trkpt>
      <trkpt lat="43.22361" lon="5.36221">
        <ele>300.07</ele>
        <time>2016-04-20T13:51:20Z</time>
      </trkpt>
      <trkpt lat="43.22356" lon="5.36232">
        <ele>303.43</ele>
        <time>2016-04-20T13:51:34Z</time>
      </trkpt>
      <trkpt lat="43.22355" lon="5.36236">
        <ele>302.95</ele>
        <time>2016-04-20T13:51:38Z</time>
      </trkpt>
      <trkpt lat="43.22353" lon="5.36241">
        <ele>303.43</ele>
        <time>2016-04-20T13:51:45Z</time>
      </trkpt>
      <trkpt lat="43.22352" lon="5.36248">
        <ele>304.39</ele>
        <time>2016-04-20T13:51:52Z</time>
      </trkpt>
      <trkpt lat="43.22353" lon="5.36262">
        <ele>307.76</ele>
        <time>2016-04-20T13:52:05Z</time>
      </trkpt>
      <trkpt lat="43.22353" lon="5.36268">
        <ele>307.76</ele>
        <time>2016-04-20T13:52:14Z</time>
      </trkpt>
      <trkpt lat="43.22353" lon="5.36272">
        <ele>308.24</ele>
        <time>2016-04-20T13:52:33Z</time>
      </trkpt>
      <trkpt lat="43.2235" lon="5.36282">
        <ele>310.16</ele>
        <time>2016-04-20T13:52:44Z</time>
      </trkpt>
      <trkpt lat="43.22348" lon="5.3629">
        <ele>311.12</ele>
        <time>2016-04-20T13:52:57Z</time>
      </trkpt>
      <trkpt lat="43.22346" lon="5.36295">
        <ele>312.57</ele>
        <time>2016-04-20T13:53:15Z</time>
      </trkpt>
      <trkpt lat="43.22344" lon="5.36305">
        <ele>314.49</ele>
        <time>2016-04-20T13:54:26Z</time>
      </trkpt>
      <trkpt lat="43.22346" lon="5.36309">
        <ele>314.49</ele>
        <time>2016-04-20T13:54:29Z</time>
      </trkpt>
      <trkpt lat="43.22344" lon="5.36321">
        <ele>315.45</ele>
        <time>2016-04-20T13:54:40Z</time>
      </trkpt>
      <trkpt lat="43.22342" lon="5.36331">
        <ele>316.41</ele>
        <time>2016-04-20T13:54:51Z</time>
      </trkpt>
      <trkpt lat="43.2234" lon="5.36336">
        <ele>317.37</ele>
        <time>2016-04-20T13:55:03Z</time>
      </trkpt>
      <trkpt lat="43.22346" lon="5.36343">
        <ele>321.22</ele>
        <time>2016-04-20T13:55:16Z</time>
      </trkpt>
      <trkpt lat="43.22347" lon="5.36348">
        <ele>323.14</ele>
        <time>2016-04-20T13:55:27Z</time>
      </trkpt>
      <trkpt lat="43.22349" lon="5.36356">
        <ele>326.99</ele>
        <time>2016-04-20T13:55:43Z</time>
      </trkpt>
      <trkpt lat="43.22346" lon="5.36361">
        <ele>329.87</ele>
        <time>2016-04-20T13:55:57Z</time>
      </trkpt>
      <trkpt lat="43.22344" lon="5.36364">
        <ele>333.23</ele>
        <time>2016-04-20T13:56:10Z</time>
      </trkpt>
      <trkpt lat="43.22339" lon="5.36366">
        <ele>335.64</ele>
        <time>2016-04-20T13:56:23Z</time>
      </trkpt>
      <trkpt lat="43.22343" lon="5.36371">
        <ele>339</ele>
        <time>2016-04-20T13:56:43Z</time>
      </trkpt>
      <trkpt lat="43.22341" lon="5.36374">
        <ele>340.44</ele>
        <time>2016-04-20T13:56:57Z</time>
      </trkpt>
      <trkpt lat="43.2234" lon="5.36374">
        <ele>340.92</ele>
        <time>2016-04-20T13:57:21Z</time>
      </trkpt>
      <trkpt lat="43.22333" lon="5.36369">
        <ele>342.85</ele>
        <time>2016-04-20T13:57:42Z</time>
      </trkpt>
      <trkpt lat="43.22325" lon="5.36364">
        <ele>342.85</ele>
        <time>2016-04-20T13:58:15Z</time>
      </trkpt>
      <trkpt lat="43.22326" lon="5.3637">
        <ele>344.77</ele>
        <time>2016-04-20T13:58:55Z</time>
      </trkpt>
      <trkpt lat="43.22328" lon="5.36375">
        <ele>346.69</ele>
        <time>2016-04-20T13:59:07Z</time>
      </trkpt>
      <trkpt lat="43.22331" lon="5.3638">
        <ele>349.1</ele>
        <time>2016-04-20T13:59:16Z</time>
      </trkpt>
      <trkpt lat="43.22338" lon="5.3639">
        <ele>352.94</ele>
        <time>2016-04-20T13:59:29Z</time>
      </trkpt>
      <trkpt lat="43.2234" lon="5.36394">
        <ele>355.34</ele>
        <time>2016-04-20T13:59:45Z</time>
      </trkpt>
      <trkpt lat="43.22331" lon="5.36392">
        <ele>357.75</ele>
        <time>2016-04-20T13:59:59Z</time>
      </trkpt>
      <trkpt lat="43.22323" lon="5.36389">
        <ele>357.75</ele>
        <time>2016-04-20T14:00:12Z</time>
      </trkpt>
      <trkpt lat="43.22321" lon="5.36393">
        <ele>357.75</ele>
        <time>2016-04-20T14:01:00Z</time>
      </trkpt>
      <trkpt lat="43.22323" lon="5.36404">
        <ele>359.19</ele>
        <time>2016-04-20T14:01:12Z</time>
      </trkpt>
      <trkpt lat="43.22325" lon="5.3641">
        <ele>360.63</ele>
        <time>2016-04-20T14:01:23Z</time>
      </trkpt>
      <trkpt lat="43.22326" lon="5.3641">
        <ele>361.11</ele>
        <time>2016-04-20T14:01:44Z</time>
      </trkpt>
      <trkpt lat="43.22326" lon="5.36411">
        <ele>361.59</ele>
        <time>2016-04-20T14:02:25Z</time>
      </trkpt>
      <trkpt lat="43.22326" lon="5.3641">
        <ele>362.07</ele>
        <time>2016-04-20T14:02:28Z</time>
      </trkpt>
      <trkpt lat="43.2232" lon="5.36411">
        <ele>361.59</ele>
        <time>2016-04-20T14:02:37Z</time>
      </trkpt>
      <trkpt lat="43.22309" lon="5.36416">
        <ele>360.63</ele>
        <time>2016-04-20T14:02:51Z</time>
      </trkpt>
      <trkpt lat="43.22301" lon="5.3642">
        <ele>360.63</ele>
        <time>2016-04-20T14:03:02Z</time>
      </trkpt>
      <trkpt lat="43.223" lon="5.36426">
        <ele>361.11</ele>
        <time>2016-04-20T14:03:16Z</time>
      </trkpt>
      <trkpt lat="43.22299" lon="5.36428">
        <ele>361.59</ele>
        <time>2016-04-20T14:03:42Z</time>
      </trkpt>
      <trkpt lat="43.22299" lon="5.36436">
        <ele>360.63</ele>
        <time>2016-04-20T14:03:53Z</time>
      </trkpt>
      <trkpt lat="43.22296" lon="5.3644">
        <ele>361.59</ele>
        <time>2016-04-20T14:04:06Z</time>
      </trkpt>
      <trkpt lat="43.22298" lon="5.36442">
        <ele>360.15</ele>
        <time>2016-04-20T14:04:20Z</time>
      </trkpt>
      <trkpt lat="43.22298" lon="5.36443">
        <ele>360.15</ele>
        <time>2016-04-20T14:04:49Z</time>
      </trkpt>
      <trkpt lat="43.22298" lon="5.36442">
        <ele>357.75</ele>
        <time>2016-04-20T14:05:09Z</time>
      </trkpt>
      <trkpt lat="43.22296" lon="5.36456">
        <ele>354.86</ele>
        <time>2016-04-20T14:05:26Z</time>
      </trkpt>
      <trkpt lat="43.22297" lon="5.36455">
        <ele>351.02</ele>
        <time>2016-04-20T14:05:42Z</time>
      </trkpt>
      <trkpt lat="43.22298" lon="5.36458">
        <ele>347.65</ele>
        <time>2016-04-20T14:05:54Z</time>
      </trkpt>
      <trkpt lat="43.22295" lon="5.36466">
        <ele>341.89</ele>
        <time>2016-04-20T14:06:09Z</time>
      </trkpt>
      <trkpt lat="43.2229" lon="5.36474">
        <ele>338.04</ele>
        <time>2016-04-20T14:06:25Z</time>
      </trkpt>
      <trkpt lat="43.22288" lon="5.36473">
        <ele>337.56</ele>
        <time>2016-04-20T14:06:40Z</time>
      </trkpt>
      <trkpt lat="43.22288" lon="5.36473">
        <ele>337.56</ele>
        <time>2016-04-20T14:07:22Z</time>
      </trkpt>
      <trkpt lat="43.22288" lon="5.36473">
        <ele>337.56</ele>
        <time>2016-04-20T14:07:47Z</time>
      </trkpt>
      <trkpt lat="43.22285" lon="5.36471">
        <ele>338.04</ele>
        <time>2016-04-20T14:08:03Z</time>
      </trkpt>
      <trkpt lat="43.2228" lon="5.36467">
        <ele>337.08</ele>
        <time>2016-04-20T14:08:18Z</time>
      </trkpt>
      <trkpt lat="43.2228" lon="5.36467">
        <ele>337.08</ele>
        <time>2016-04-20T14:08:38Z</time>
      </trkpt>
      <trkpt lat="43.22279" lon="5.36468">
        <ele>337.08</ele>
        <time>2016-04-20T14:09:08Z</time>
      </trkpt>
      <trkpt lat="43.22277" lon="5.36472">
        <ele>336.12</ele>
        <time>2016-04-20T14:11:13Z</time>
      </trkpt>
      <trkpt lat="43.22277" lon="5.36472">
        <ele>336.12</ele>
        <time>2016-04-20T14:11:17Z</time>
      </trkpt>
      <trkpt lat="43.22276" lon="5.36486">
        <ele>335.16</ele>
        <time>2016-04-20T14:11:28Z</time>
      </trkpt>
      <trkpt lat="43.22273" lon="5.36499">
        <ele>333.71</ele>
        <time>2016-04-20T14:11:40Z</time>
      </trkpt>
      <trkpt lat="43.22273" lon="5.36501">
        <ele>333.23</ele>
        <time>2016-04-20T14:11:42Z</time>
      </trkpt>
      <trkpt lat="43.22267" lon="5.36514">
        <ele>330.35</ele>
        <time>2016-04-20T14:11:54Z</time>
      </trkpt>
      <trkpt lat="43.22265" lon="5.3652">
        <ele>329.39</ele>
        <time>2016-04-20T14:12:07Z</time>
      </trkpt>
      <trkpt lat="43.22265" lon="5.3652">
        <ele>329.39</ele>
        <time>2016-04-20T14:12:24Z</time>
      </trkpt>
      <trkpt lat="43.22265" lon="5.3652">
        <ele>329.39</ele>
        <time>2016-04-20T14:12:40Z</time>
      </trkpt>
      <trkpt lat="43.2226" lon="5.36526">
        <ele>326.99</ele>
        <time>2016-04-20T14:12:56Z</time>
      </trkpt>
      <trkpt lat="43.2226" lon="5.36526">
        <ele>326.99</ele>
        <time>2016-04-20T14:13:26Z</time>
      </trkpt>
      <trkpt lat="43.22253" lon="5.36529">
        <ele>322.18</ele>
        <time>2016-04-20T14:13:54Z</time>
      </trkpt>
      <trkpt lat="43.22252" lon="5.36531">
        <ele>321.7</ele>
        <time>2016-04-20T14:14:00Z</time>
      </trkpt>
      <trkpt lat="43.22244" lon="5.36539">
        <ele>319.78</ele>
        <time>2016-04-20T14:14:14Z</time>
      </trkpt>
      <trkpt lat="43.22238" lon="5.36544">
        <ele>318.33</ele>
        <time>2016-04-20T14:14:29Z</time>
      </trkpt>
      <trkpt lat="43.22232" lon="5.36554">
        <ele>314.01</ele>
        <time>2016-04-20T14:14:40Z</time>
      </trkpt>
      <trkpt lat="43.22225" lon="5.36566">
        <ele>314.01</ele>
        <time>2016-04-20T14:14:54Z</time>
      </trkpt>
      <trkpt lat="43.22216" lon="5.36566">
        <ele>315.45</ele>
        <time>2016-04-20T14:15:07Z</time>
      </trkpt>
      <trkpt lat="43.22211" lon="5.36566">
        <ele>316.89</ele>
        <time>2016-04-20T14:15:20Z</time>
      </trkpt>
      <trkpt lat="43.22208" lon="5.36568">
        <ele>316.89</ele>
        <time>2016-04-20T14:15:38Z</time>
      </trkpt>
      <trkpt lat="43.2221" lon="5.3657">
        <ele>316.89</ele>
        <time>2016-04-20T14:15:54Z</time>
      </trkpt>
      <trkpt lat="43.22207" lon="5.36568">
        <ele>317.37</ele>
        <time>2016-04-20T14:16:07Z</time>
      </trkpt>
      <trkpt lat="43.22207" lon="5.36568">
        <ele>317.37</ele>
        <time>2016-04-20T14:16:21Z</time>
      </trkpt>
      <trkpt lat="43.22199" lon="5.36573">
        <ele>316.41</ele>
        <time>2016-04-20T14:16:32Z</time>
      </trkpt>
      <trkpt lat="43.22199" lon="5.36573">
        <ele>316.41</ele>
        <time>2016-04-20T14:16:43Z</time>
      </trkpt>
      <trkpt lat="43.22196" lon="5.36575">
        <ele>315.93</ele>
        <time>2016-04-20T14:16:56Z</time>
      </trkpt>
      <trkpt lat="43.22194" lon="5.36577">
        <ele>315.93</ele>
        <time>2016-04-20T14:17:08Z</time>
      </trkpt>
      <trkpt lat="43.22194" lon="5.36577">
        <ele>315.93</ele>
        <time>2016-04-20T14:17:22Z</time>
      </trkpt>
      <trkpt lat="43.2219" lon="5.36581">
        <ele>315.93</ele>
        <time>2016-04-20T14:17:38Z</time>
      </trkpt>
      <trkpt lat="43.22183" lon="5.36589">
        <ele>315.45</ele>
        <time>2016-04-20T14:17:51Z</time>
      </trkpt>
      <trkpt lat="43.22183" lon="5.36591">
        <ele>315.45</ele>
        <time>2016-04-20T14:18:10Z</time>
      </trkpt>
      <trkpt lat="43.22182" lon="5.36599">
        <ele>314.97</ele>
        <time>2016-04-20T14:18:16Z</time>
      </trkpt>
      <trkpt lat="43.22181" lon="5.36603">
        <ele>314.97</ele>
        <time>2016-04-20T14:18:19Z</time>
      </trkpt>
      <trkpt lat="43.2217" lon="5.36617">
        <ele>316.89</ele>
        <time>2016-04-20T14:18:32Z</time>
      </trkpt>
      <trkpt lat="43.22159" lon="5.36624">
        <ele>320.74</ele>
        <time>2016-04-20T14:18:43Z</time>
      </trkpt>
      <trkpt lat="43.22158" lon="5.36625">
        <ele>322.18</ele>
        <time>2016-04-20T14:19:08Z</time>
      </trkpt>
      <trkpt lat="43.22158" lon="5.36625">
        <ele>322.18</ele>
        <time>2016-04-20T14:19:14Z</time>
      </trkpt>
      <trkpt lat="43.2216" lon="5.36631">
        <ele>327.95</ele>
        <time>2016-04-20T14:19:31Z</time>
      </trkpt>
      <trkpt lat="43.2216" lon="5.36631">
        <ele>327.95</ele>
        <time>2016-04-20T14:19:32Z</time>
      </trkpt>
      <trkpt lat="43.22167" lon="5.36633">
        <ele>330.35</ele>
        <time>2016-04-20T14:19:39Z</time>
      </trkpt>
      <trkpt lat="43.22174" lon="5.36641">
        <ele>331.79</ele>
        <time>2016-04-20T14:19:50Z</time>
      </trkpt>
      <trkpt lat="43.2218" lon="5.36645">
        <ele>332.75</ele>
        <time>2016-04-20T14:20:01Z</time>
      </trkpt>
      <trkpt lat="43.22186" lon="5.36649">
        <ele>333.71</ele>
        <time>2016-04-20T14:20:11Z</time>
      </trkpt>
      <trkpt lat="43.22186" lon="5.36649">
        <ele>333.71</ele>
        <time>2016-04-20T14:20:12Z</time>
      </trkpt>
      <trkpt lat="43.22189" lon="5.36658">
        <ele>334.68</ele>
        <time>2016-04-20T14:20:25Z</time>
      </trkpt>
      <trkpt lat="43.22189" lon="5.3667">
        <ele>336.12</ele>
        <time>2016-04-20T14:20:38Z</time>
      </trkpt>
      <trkpt lat="43.22189" lon="5.36672">
        <ele>336.6</ele>
        <time>2016-04-20T14:20:40Z</time>
      </trkpt>
      <trkpt lat="43.2219" lon="5.36677">
        <ele>336.6</ele>
        <time>2016-04-20T14:20:50Z</time>
      </trkpt>
      <trkpt lat="43.22194" lon="5.3668">
        <ele>335.16</ele>
        <time>2016-04-20T14:20:55Z</time>
      </trkpt>
      <trkpt lat="43.22199" lon="5.36693">
        <ele>334.68</ele>
        <time>2016-04-20T14:21:07Z</time>
      </trkpt>
      <trkpt lat="43.22204" lon="5.36702">
        <ele>335.64</ele>
        <time>2016-04-20T14:21:17Z</time>
      </trkpt>
      <trkpt lat="43.22209" lon="5.36707">
        <ele>337.56</ele>
        <time>2016-04-20T14:21:29Z</time>
      </trkpt>
      <trkpt lat="43.22215" lon="5.36714">
        <ele>338.52</ele>
        <time>2016-04-20T14:21:39Z</time>
      </trkpt>
      <trkpt lat="43.2222" lon="5.36723">
        <ele>339.48</ele>
        <time>2016-04-20T14:21:52Z</time>
      </trkpt>
      <trkpt lat="43.22224" lon="5.3673">
        <ele>341.89</ele>
        <time>2016-04-20T14:22:07Z</time>
      </trkpt>
      <trkpt lat="43.22224" lon="5.3673">
        <ele>341.89</ele>
        <time>2016-04-20T14:22:31Z</time>
      </trkpt>
      <trkpt lat="43.2223" lon="5.3674">
        <ele>344.29</ele>
        <time>2016-04-20T14:22:42Z</time>
      </trkpt>
      <trkpt lat="43.22233" lon="5.36748">
        <ele>347.17</ele>
        <time>2016-04-20T14:22:55Z</time>
      </trkpt>
      <trkpt lat="43.22239" lon="5.36754">
        <ele>348.13</ele>
        <time>2016-04-20T14:23:06Z</time>
      </trkpt>
      <trkpt lat="43.22241" lon="5.36756">
        <ele>348.13</ele>
        <time>2016-04-20T14:23:14Z</time>
      </trkpt>
      <trkpt lat="43.22248" lon="5.36768">
        <ele>350.06</ele>
        <time>2016-04-20T14:23:25Z</time>
      </trkpt>
      <trkpt lat="43.2226" lon="5.3678">
        <ele>352.46</ele>
        <time>2016-04-20T14:23:37Z</time>
      </trkpt>
      <trkpt lat="43.22265" lon="5.36786">
        <ele>353.9</ele>
        <time>2016-04-20T14:23:51Z</time>
      </trkpt>
      <trkpt lat="43.22265" lon="5.36786">
        <ele>353.9</ele>
        <time>2016-04-20T14:24:04Z</time>
      </trkpt>
      <trkpt lat="43.22266" lon="5.36792">
        <ele>355.34</ele>
        <time>2016-04-20T14:24:21Z</time>
      </trkpt>
      <trkpt lat="43.22266" lon="5.36792">
        <ele>355.34</ele>
        <time>2016-04-20T14:24:43Z</time>
      </trkpt>
      <trkpt lat="43.22265" lon="5.36791">
        <ele>355.34</ele>
        <time>2016-04-20T14:25:01Z</time>
      </trkpt>
      <trkpt lat="43.22266" lon="5.36793">
        <ele>355.34</ele>
        <time>2016-04-20T14:26:00Z</time>
      </trkpt>
      <trkpt lat="43.22266" lon="5.36793">
        <ele>355.83</ele>
        <time>2016-04-20T14:26:18Z</time>
      </trkpt>
      <trkpt lat="43.22273" lon="5.3681">
        <ele>363.04</ele>
        <time>2016-04-20T14:26:28Z</time>
      </trkpt>
      <trkpt lat="43.22274" lon="5.36817">
        <ele>367.36</ele>
        <time>2016-04-20T14:26:37Z</time>
      </trkpt>
      <trkpt lat="43.22279" lon="5.36821">
        <ele>367.84</ele>
        <time>2016-04-20T14:26:51Z</time>
      </trkpt>
      <trkpt lat="43.22283" lon="5.36822">
        <ele>367.84</ele>
        <time>2016-04-20T14:27:03Z</time>
      </trkpt>
      <trkpt lat="43.22289" lon="5.36817">
        <ele>367.36</ele>
        <time>2016-04-20T14:27:16Z</time>
      </trkpt>
      <trkpt lat="43.22291" lon="5.36824">
        <ele>367.36</ele>
        <time>2016-04-20T14:27:30Z</time>
      </trkpt>
      <trkpt lat="43.2229" lon="5.36825">
        <ele>368.32</ele>
        <time>2016-04-20T14:27:47Z</time>
      </trkpt>
      <trkpt lat="43.22291" lon="5.36833">
        <ele>371.69</ele>
        <time>2016-04-20T14:28:09Z</time>
      </trkpt>
      <trkpt lat="43.2229" lon="5.36837">
        <ele>374.57</ele>
        <time>2016-04-20T14:28:20Z</time>
      </trkpt>
      <trkpt lat="43.22288" lon="5.36843">
        <ele>376.49</ele>
        <time>2016-04-20T14:28:30Z</time>
      </trkpt>
      <trkpt lat="43.22289" lon="5.36851">
        <ele>381.3</ele>
        <time>2016-04-20T14:28:47Z</time>
      </trkpt>
      <trkpt lat="43.2229" lon="5.36854">
        <ele>382.74</ele>
        <time>2016-04-20T14:28:59Z</time>
      </trkpt>
      <trkpt lat="43.2229" lon="5.36855">
        <ele>383.22</ele>
        <time>2016-04-20T14:29:21Z</time>
      </trkpt>
      <trkpt lat="43.22289" lon="5.36853">
        <ele>382.26</ele>
        <time>2016-04-20T14:29:44Z</time>
      </trkpt>
      <trkpt lat="43.22289" lon="5.36853">
        <ele>382.26</ele>
        <time>2016-04-20T14:29:50Z</time>
      </trkpt>
      <trkpt lat="43.22291" lon="5.36856">
        <ele>382.26</ele>
        <time>2016-04-20T14:29:56Z</time>
      </trkpt>
      <trkpt lat="43.22287" lon="5.36866">
        <ele>384.18</ele>
        <time>2016-04-20T14:30:07Z</time>
      </trkpt>
      <trkpt lat="43.22284" lon="5.36879">
        <ele>387.07</ele>
        <time>2016-04-20T14:30:18Z</time>
      </trkpt>
      <trkpt lat="43.22282" lon="5.36891">
        <ele>386.11</ele>
        <time>2016-04-20T14:30:28Z</time>
      </trkpt>
      <trkpt lat="43.22272" lon="5.36899">
        <ele>384.18</ele>
        <time>2016-04-20T14:30:41Z</time>
      </trkpt>
      <trkpt lat="43.22269" lon="5.36901">
        <ele>384.66</ele>
        <time>2016-04-20T14:30:49Z</time>
      </trkpt>
      <trkpt lat="43.22267" lon="5.36902">
        <ele>384.18</ele>
        <time>2016-04-20T14:30:52Z</time>
      </trkpt>
      <trkpt lat="43.22266" lon="5.36905">
        <ele>384.18</ele>
        <time>2016-04-20T14:30:56Z</time>
      </trkpt>
      <trkpt lat="43.22265" lon="5.3691">
        <ele>385.15</ele>
        <time>2016-04-20T14:31:01Z</time>
      </trkpt>
      <trkpt lat="43.22265" lon="5.3692">
        <ele>386.11</ele>
        <time>2016-04-20T14:31:11Z</time>
      </trkpt>
      <trkpt lat="43.22266" lon="5.36924">
        <ele>386.11</ele>
        <time>2016-04-20T14:31:13Z</time>
      </trkpt>
      <trkpt lat="43.22263" lon="5.36937">
        <ele>385.63</ele>
        <time>2016-04-20T14:31:25Z</time>
      </trkpt>
      <trkpt lat="43.22261" lon="5.36949">
        <ele>385.15</ele>
        <time>2016-04-20T14:31:37Z</time>
      </trkpt>
      <trkpt lat="43.2226" lon="5.36962">
        <ele>386.59</ele>
        <time>2016-04-20T14:31:49Z</time>
      </trkpt>
      <trkpt lat="43.22259" lon="5.36975">
        <ele>391.39</ele>
        <time>2016-04-20T14:31:59Z</time>
      </trkpt>
      <trkpt lat="43.22258" lon="5.36981">
        <ele>391.87</ele>
        <time>2016-04-20T14:32:04Z</time>
      </trkpt>
      <trkpt lat="43.22256" lon="5.3699">
        <ele>393.8</ele>
        <time>2016-04-20T14:32:15Z</time>
      </trkpt>
      <trkpt lat="43.22255" lon="5.37002">
        <ele>394.76</ele>
        <time>2016-04-20T14:32:26Z</time>
      </trkpt>
      <trkpt lat="43.22254" lon="5.37012">
        <ele>393.8</ele>
        <time>2016-04-20T14:32:37Z</time>
      </trkpt>
      <trkpt lat="43.22254" lon="5.37021">
        <ele>392.84</ele>
        <time>2016-04-20T14:32:46Z</time>
      </trkpt>
      <trkpt lat="43.22254" lon="5.37037">
        <ele>394.76</ele>
        <time>2016-04-20T14:32:58Z</time>
      </trkpt>
      <trkpt lat="43.22253" lon="5.37049">
        <ele>394.76</ele>
        <time>2016-04-20T14:33:08Z</time>
      </trkpt>
      <trkpt lat="43.22253" lon="5.37053">
        <ele>394.28</ele>
        <time>2016-04-20T14:33:17Z</time>
      </trkpt>
      <trkpt lat="43.22252" lon="5.37056">
        <ele>394.28</ele>
        <time>2016-04-20T14:33:20Z</time>
      </trkpt>
      <trkpt lat="43.22253" lon="5.37062">
        <ele>393.8</ele>
        <time>2016-04-20T14:33:27Z</time>
      </trkpt>
      <trkpt lat="43.22253" lon="5.37065">
        <ele>393.8</ele>
        <time>2016-04-20T14:33:30Z</time>
      </trkpt>
      <trkpt lat="43.22253" lon="5.37069">
        <ele>394.28</ele>
        <time>2016-04-20T14:33:33Z</time>
      </trkpt>
      <trkpt lat="43.22253" lon="5.37075">
        <ele>395.24</ele>
        <time>2016-04-20T14:33:43Z</time>
      </trkpt>
      <trkpt lat="43.22253" lon="5.37078">
        <ele>396.2</ele>
        <time>2016-04-20T14:33:55Z</time>
      </trkpt>
      <trkpt lat="43.22256" lon="5.37085">
        <ele>399.08</ele>
        <time>2016-04-20T14:34:06Z</time>
      </trkpt>
      <trkpt lat="43.22258" lon="5.37096">
        <ele>402.93</ele>
        <time>2016-04-20T14:34:21Z</time>
      </trkpt>
      <trkpt lat="43.22263" lon="5.37107">
        <ele>408.22</ele>
        <time>2016-04-20T14:34:32Z</time>
      </trkpt>
      <trkpt lat="43.22264" lon="5.3711">
        <ele>410.14</ele>
        <time>2016-04-20T14:34:44Z</time>
      </trkpt>
      <trkpt lat="43.22267" lon="5.37112">
        <ele>410.62</ele>
        <time>2016-04-20T14:34:47Z</time>
      </trkpt>
      <trkpt lat="43.22268" lon="5.37116">
        <ele>411.1</ele>
        <time>2016-04-20T14:34:54Z</time>
      </trkpt>
      <trkpt lat="43.2227" lon="5.37123">
        <ele>412.06</ele>
        <time>2016-04-20T14:35:06Z</time>
      </trkpt>
      <trkpt lat="43.22273" lon="5.37131">
        <ele>414.95</ele>
        <time>2016-04-20T14:35:17Z</time>
      </trkpt>
      <trkpt lat="43.22278" lon="5.37134">
        <ele>416.87</ele>
        <time>2016-04-20T14:35:26Z</time>
      </trkpt>
      <trkpt lat="43.22286" lon="5.37141">
        <ele>417.35</ele>
        <time>2016-04-20T14:35:36Z</time>
      </trkpt>
      <trkpt lat="43.22292" lon="5.37148">
        <ele>416.39</ele>
        <time>2016-04-20T14:35:47Z</time>
      </trkpt>
      <trkpt lat="43.223" lon="5.3716">
        <ele>418.31</ele>
        <time>2016-04-20T14:35:59Z</time>
      </trkpt>
      <trkpt lat="43.22302" lon="5.37164">
        <ele>418.79</ele>
        <time>2016-04-20T14:36:12Z</time>
      </trkpt>
      <trkpt lat="43.22302" lon="5.37169">
        <ele>419.75</ele>
        <time>2016-04-20T14:36:26Z</time>
      </trkpt>
      <trkpt lat="43.22302" lon="5.37169">
        <ele>419.75</ele>
        <time>2016-04-20T14:36:32Z</time>
      </trkpt>
      <trkpt lat="43.22309" lon="5.37171">
        <ele>420.71</ele>
        <time>2016-04-20T14:36:42Z</time>
      </trkpt>
      <trkpt lat="43.22313" lon="5.37177">
        <ele>421.68</ele>
        <time>2016-04-20T14:36:51Z</time>
      </trkpt>
      <trkpt lat="43.22315" lon="5.37177">
        <ele>422.16</ele>
        <time>2016-04-20T14:36:54Z</time>
      </trkpt>
      <trkpt lat="43.2232" lon="5.37182">
        <ele>423.6</ele>
        <time>2016-04-20T14:37:05Z</time>
      </trkpt>
      <trkpt lat="43.22321" lon="5.37183">
        <ele>423.6</ele>
        <time>2016-04-20T14:37:24Z</time>
      </trkpt>
      <trkpt lat="43.22321" lon="5.37184">
        <ele>424.08</ele>
        <time>2016-04-20T14:37:59Z</time>
      </trkpt>
      <trkpt lat="43.22321" lon="5.37184">
        <ele>424.08</ele>
        <time>2016-04-20T14:38:01Z</time>
      </trkpt>
      <trkpt lat="43.22323" lon="5.37186">
        <ele>424.56</ele>
        <time>2016-04-20T14:38:04Z</time>
      </trkpt>
      <trkpt lat="43.22327" lon="5.37187">
        <ele>425.04</ele>
        <time>2016-04-20T14:38:16Z</time>
      </trkpt>
      <trkpt lat="43.22327" lon="5.37187">
        <ele>425.04</ele>
        <time>2016-04-20T14:38:37Z</time>
      </trkpt>
      <trkpt lat="43.22326" lon="5.37189">
        <ele>427.44</ele>
        <time>2016-04-20T14:39:05Z</time>
      </trkpt>
      <trkpt lat="43.22326" lon="5.3719">
        <ele>427.44</ele>
        <time>2016-04-20T14:39:53Z</time>
      </trkpt>
      <trkpt lat="43.22326" lon="5.3719">
        <ele>427.44</ele>
        <time>2016-04-20T14:40:09Z</time>
      </trkpt>
      <trkpt lat="43.22326" lon="5.37184">
        <ele>430.33</ele>
        <time>2016-04-20T14:40:23Z</time>
      </trkpt>
      <trkpt lat="43.2232" lon="5.3718">
        <ele>430.33</ele>
        <time>2016-04-20T14:40:39Z</time>
      </trkpt>
      <trkpt lat="43.22317" lon="5.37179">
        <ele>429.85</ele>
        <time>2016-04-20T14:40:53Z</time>
      </trkpt>
      <trkpt lat="43.22307" lon="5.37175">
        <ele>432.25</ele>
        <time>2016-04-20T14:41:05Z</time>
      </trkpt>
      <trkpt lat="43.22295" lon="5.37155">
        <ele>432.73</ele>
        <time>2016-04-20T14:41:20Z</time>
      </trkpt>
      <trkpt lat="43.2229" lon="5.37147">
        <ele>433.21</ele>
        <time>2016-04-20T14:41:28Z</time>
      </trkpt>
      <trkpt lat="43.22286" lon="5.37145">
        <ele>434.65</ele>
        <time>2016-04-20T14:41:41Z</time>
      </trkpt>
      <trkpt lat="43.22276" lon="5.37136">
        <ele>434.17</ele>
        <time>2016-04-20T14:41:53Z</time>
      </trkpt>
      <trkpt lat="43.22271" lon="5.37131">
        <ele>434.17</ele>
        <time>2016-04-20T14:42:06Z</time>
      </trkpt>
      <trkpt lat="43.2227" lon="5.37122">
        <ele>426.48</ele>
        <time>2016-04-20T14:42:18Z</time>
      </trkpt>
      <trkpt lat="43.22271" lon="5.37117">
        <ele>422.64</ele>
        <time>2016-04-20T14:42:24Z</time>
      </trkpt>
      <trkpt lat="43.22266" lon="5.37112">
        <ele>423.12</ele>
        <time>2016-04-20T14:42:39Z</time>
      </trkpt>
      <trkpt lat="43.22262" lon="5.37103">
        <ele>421.68</ele>
        <time>2016-04-20T14:42:51Z</time>
      </trkpt>
      <trkpt lat="43.2226" lon="5.37096">
        <ele>419.27</ele>
        <time>2016-04-20T14:43:09Z</time>
      </trkpt>
      <trkpt lat="43.22257" lon="5.37086">
        <ele>416.87</ele>
        <time>2016-04-20T14:43:23Z</time>
      </trkpt>
      <trkpt lat="43.22255" lon="5.37078">
        <ele>416.39</ele>
        <time>2016-04-20T14:43:31Z</time>
      </trkpt>
      <trkpt lat="43.22255" lon="5.37076">
        <ele>413.98</ele>
        <time>2016-04-20T14:43:43Z</time>
      </trkpt>
      <trkpt lat="43.22256" lon="5.37075">
        <ele>413.02</ele>
        <time>2016-04-20T14:43:45Z</time>
      </trkpt>
      <trkpt lat="43.22256" lon="5.37066">
        <ele>409.18</ele>
        <time>2016-04-20T14:43:53Z</time>
      </trkpt>
      <trkpt lat="43.22253" lon="5.37052">
        <ele>406.29</ele>
        <time>2016-04-20T14:44:01Z</time>
      </trkpt>
      <trkpt lat="43.22251" lon="5.37049">
        <ele>405.81</ele>
        <time>2016-04-20T14:44:03Z</time>
      </trkpt>
      <trkpt lat="43.22244" lon="5.37046">
        <ele>402.45</ele>
        <time>2016-04-20T14:44:09Z</time>
      </trkpt>
      <trkpt lat="43.22242" lon="5.37039">
        <ele>398.12</ele>
        <time>2016-04-20T14:44:15Z</time>
      </trkpt>
      <trkpt lat="43.22243" lon="5.37036">
        <ele>397.16</ele>
        <time>2016-04-20T14:44:17Z</time>
      </trkpt>
      <trkpt lat="43.22248" lon="5.37023">
        <ele>400.53</ele>
        <time>2016-04-20T14:44:26Z</time>
      </trkpt>
      <trkpt lat="43.22248" lon="5.3702">
        <ele>401.01</ele>
        <time>2016-04-20T14:44:28Z</time>
      </trkpt>
      <trkpt lat="43.2225" lon="5.37007">
        <ele>403.89</ele>
        <time>2016-04-20T14:44:39Z</time>
      </trkpt>
      <trkpt lat="43.22247" lon="5.37001">
        <ele>404.37</ele>
        <time>2016-04-20T14:44:47Z</time>
      </trkpt>
      <trkpt lat="43.22248" lon="5.3699">
        <ele>403.89</ele>
        <time>2016-04-20T14:44:54Z</time>
      </trkpt>
      <trkpt lat="43.22254" lon="5.36976">
        <ele>400.53</ele>
        <time>2016-04-20T14:45:02Z</time>
      </trkpt>
      <trkpt lat="43.22255" lon="5.36958">
        <ele>399.08</ele>
        <time>2016-04-20T14:45:15Z</time>
      </trkpt>
      <trkpt lat="43.22258" lon="5.36945">
        <ele>395.24</ele>
        <time>2016-04-20T14:45:28Z</time>
      </trkpt>
      <trkpt lat="43.2226" lon="5.36942">
        <ele>394.28</ele>
        <time>2016-04-20T14:45:31Z</time>
      </trkpt>
      <trkpt lat="43.22263" lon="5.36935">
        <ele>392.84</ele>
        <time>2016-04-20T14:45:37Z</time>
      </trkpt>
      <trkpt lat="43.2226" lon="5.36927">
        <ele>393.8</ele>
        <time>2016-04-20T14:45:42Z</time>
      </trkpt>
      <trkpt lat="43.22259" lon="5.36924">
        <ele>393.8</ele>
        <time>2016-04-20T14:45:46Z</time>
      </trkpt>
      <trkpt lat="43.22263" lon="5.36912">
        <ele>393.8</ele>
        <time>2016-04-20T14:45:53Z</time>
      </trkpt>
      <trkpt lat="43.22272" lon="5.36904">
        <ele>389.47</ele>
        <time>2016-04-20T14:46:04Z</time>
      </trkpt>
      <trkpt lat="43.22273" lon="5.36903">
        <ele>388.99</ele>
        <time>2016-04-20T14:46:05Z</time>
      </trkpt>
      <trkpt lat="43.22276" lon="5.36897">
        <ele>386.11</ele>
        <time>2016-04-20T14:46:15Z</time>
      </trkpt>
      <trkpt lat="43.22279" lon="5.36891">
        <ele>384.66</ele>
        <time>2016-04-20T14:46:20Z</time>
      </trkpt>
      <trkpt lat="43.22279" lon="5.36886">
        <ele>383.7</ele>
        <time>2016-04-20T14:46:24Z</time>
      </trkpt>
      <trkpt lat="43.2228" lon="5.36876">
        <ele>382.26</ele>
        <time>2016-04-20T14:46:33Z</time>
      </trkpt>
      <trkpt lat="43.22282" lon="5.36869">
        <ele>380.82</ele>
        <time>2016-04-20T14:46:42Z</time>
      </trkpt>
      <trkpt lat="43.2228" lon="5.36866">
        <ele>380.34</ele>
        <time>2016-04-20T14:46:45Z</time>
      </trkpt>
      <trkpt lat="43.22283" lon="5.36853">
        <ele>380.34</ele>
        <time>2016-04-20T14:47:00Z</time>
      </trkpt>
      <trkpt lat="43.22282" lon="5.3685">
        <ele>381.78</ele>
        <time>2016-04-20T14:47:13Z</time>
      </trkpt>
      <trkpt lat="43.22276" lon="5.36848">
        <ele>387.07</ele>
        <time>2016-04-20T14:47:24Z</time>
      </trkpt>
      <trkpt lat="43.22273" lon="5.36842">
        <ele>390.43</ele>
        <time>2016-04-20T14:47:34Z</time>
      </trkpt>
      <trkpt lat="43.22272" lon="5.36835">
        <ele>390.43</ele>
        <time>2016-04-20T14:47:47Z</time>
      </trkpt>
      <trkpt lat="43.22277" lon="5.36826">
        <ele>389.47</ele>
        <time>2016-04-20T14:48:01Z</time>
      </trkpt>
      <trkpt lat="43.22278" lon="5.36825">
        <ele>389.47</ele>
        <time>2016-04-20T14:48:21Z</time>
      </trkpt>
      <trkpt lat="43.2228" lon="5.36816">
        <ele>388.51</ele>
        <time>2016-04-20T14:48:47Z</time>
      </trkpt>
      <trkpt lat="43.22278" lon="5.36817">
        <ele>387.07</ele>
        <time>2016-04-20T14:48:59Z</time>
      </trkpt>
      <trkpt lat="43.22277" lon="5.36819">
        <ele>385.63</ele>
        <time>2016-04-20T14:49:25Z</time>
      </trkpt>
      <trkpt lat="43.22272" lon="5.36816">
        <ele>381.78</ele>
        <time>2016-04-20T14:49:43Z</time>
      </trkpt>
      <trkpt lat="43.22272" lon="5.36811">
        <ele>380.82</ele>
        <time>2016-04-20T14:50:01Z</time>
      </trkpt>
      <trkpt lat="43.22272" lon="5.36801">
        <ele>376.97</ele>
        <time>2016-04-20T14:50:13Z</time>
      </trkpt>
      <trkpt lat="43.22268" lon="5.36791">
        <ele>373.61</ele>
        <time>2016-04-20T14:50:27Z</time>
      </trkpt>
      <trkpt lat="43.22263" lon="5.36781">
        <ele>370.24</ele>
        <time>2016-04-20T14:50:37Z</time>
      </trkpt>
      <trkpt lat="43.22261" lon="5.36778">
        <ele>369.28</ele>
        <time>2016-04-20T14:50:42Z</time>
      </trkpt>
      <trkpt lat="43.22251" lon="5.36767">
        <ele>362.55</ele>
        <time>2016-04-20T14:50:55Z</time>
      </trkpt>
      <trkpt lat="43.22246" lon="5.36762">
        <ele>360.15</ele>
        <time>2016-04-20T14:51:00Z</time>
      </trkpt>
      <trkpt lat="43.22242" lon="5.36751">
        <ele>353.9</ele>
        <time>2016-04-20T14:51:14Z</time>
      </trkpt>
      <trkpt lat="43.22237" lon="5.36745">
        <ele>349.58</ele>
        <time>2016-04-20T14:51:26Z</time>
      </trkpt>
      <trkpt lat="43.22229" lon="5.36732">
        <ele>343.81</ele>
        <time>2016-04-20T14:51:40Z</time>
      </trkpt>
      <trkpt lat="43.22227" lon="5.36729">
        <ele>342.85</ele>
        <time>2016-04-20T14:51:43Z</time>
      </trkpt>
      <trkpt lat="43.22221" lon="5.36718">
        <ele>337.56</ele>
        <time>2016-04-20T14:51:55Z</time>
      </trkpt>
      <trkpt lat="43.22214" lon="5.36709">
        <ele>332.75</ele>
        <time>2016-04-20T14:52:09Z</time>
      </trkpt>
      <trkpt lat="43.22212" lon="5.36706">
        <ele>330.83</ele>
        <time>2016-04-20T14:52:24Z</time>
      </trkpt>
      <trkpt lat="43.22211" lon="5.36705">
        <ele>330.83</ele>
        <time>2016-04-20T14:52:25Z</time>
      </trkpt>
      <trkpt lat="43.22209" lon="5.36703">
        <ele>329.87</ele>
        <time>2016-04-20T14:52:27Z</time>
      </trkpt>
      <trkpt lat="43.22203" lon="5.36694">
        <ele>328.43</ele>
        <time>2016-04-20T14:52:32Z</time>
      </trkpt>
      <trkpt lat="43.22196" lon="5.36689">
        <ele>326.5</ele>
        <time>2016-04-20T14:52:39Z</time>
      </trkpt>
      <trkpt lat="43.22194" lon="5.36678">
        <ele>326.02</ele>
        <time>2016-04-20T14:52:47Z</time>
      </trkpt>
      <trkpt lat="43.22191" lon="5.3667">
        <ele>326.99</ele>
        <time>2016-04-20T14:52:58Z</time>
      </trkpt>
      <trkpt lat="43.22191" lon="5.36667">
        <ele>327.95</ele>
        <time>2016-04-20T14:53:02Z</time>
      </trkpt>
      <trkpt lat="43.22189" lon="5.36656">
        <ele>328.43</ele>
        <time>2016-04-20T14:53:12Z</time>
      </trkpt>
      <trkpt lat="43.22185" lon="5.36648">
        <ele>327.95</ele>
        <time>2016-04-20T14:53:19Z</time>
      </trkpt>
      <trkpt lat="43.22177" lon="5.36644">
        <ele>326.5</ele>
        <time>2016-04-20T14:53:30Z</time>
      </trkpt>
      <trkpt lat="43.2217" lon="5.36638">
        <ele>325.54</ele>
        <time>2016-04-20T14:53:37Z</time>
      </trkpt>
      <trkpt lat="43.22163" lon="5.36634">
        <ele>324.1</ele>
        <time>2016-04-20T14:53:45Z</time>
      </trkpt>
      <trkpt lat="43.22153" lon="5.36626">
        <ele>326.02</ele>
        <time>2016-04-20T14:53:58Z</time>
      </trkpt>
      <trkpt lat="43.22155" lon="5.36624">
        <ele>327.47</ele>
        <time>2016-04-20T14:54:01Z</time>
      </trkpt>
      <trkpt lat="43.22159" lon="5.3662">
        <ele>327.95</ele>
        <time>2016-04-20T14:54:09Z</time>
      </trkpt>
      <trkpt lat="43.22163" lon="5.36617">
        <ele>327.47</ele>
        <time>2016-04-20T14:54:14Z</time>
      </trkpt>
      <trkpt lat="43.22169" lon="5.36603">
        <ele>326.02</ele>
        <time>2016-04-20T14:54:27Z</time>
      </trkpt>
      <trkpt lat="43.2217" lon="5.36601">
        <ele>326.5</ele>
        <time>2016-04-20T14:54:29Z</time>
      </trkpt>
      <trkpt lat="43.22179" lon="5.36595">
        <ele>327.95</ele>
        <time>2016-04-20T14:54:42Z</time>
      </trkpt>
      <trkpt lat="43.22184" lon="5.36593">
        <ele>326.99</ele>
        <time>2016-04-20T14:54:54Z</time>
      </trkpt>
      <trkpt lat="43.22189" lon="5.36585">
        <ele>323.14</ele>
        <time>2016-04-20T14:55:07Z</time>
      </trkpt>
      <trkpt lat="43.22197" lon="5.3658">
        <ele>318.81</ele>
        <time>2016-04-20T14:55:22Z</time>
      </trkpt>
      <trkpt lat="43.22206" lon="5.36573">
        <ele>314.97</ele>
        <time>2016-04-20T14:55:36Z</time>
      </trkpt>
      <trkpt lat="43.22208" lon="5.36574">
        <ele>314.97</ele>
        <time>2016-04-20T14:55:51Z</time>
      </trkpt>
      <trkpt lat="43.22209" lon="5.36571">
        <ele>314.97</ele>
        <time>2016-04-20T14:56:06Z</time>
      </trkpt>
      <trkpt lat="43.22211" lon="5.36571">
        <ele>314.49</ele>
        <time>2016-04-20T14:56:26Z</time>
      </trkpt>
      <trkpt lat="43.22215" lon="5.36568">
        <ele>313.53</ele>
        <time>2016-04-20T14:56:30Z</time>
      </trkpt>
      <trkpt lat="43.22221" lon="5.36566">
        <ele>312.57</ele>
        <time>2016-04-20T14:56:35Z</time>
      </trkpt>
      <trkpt lat="43.2224" lon="5.36552">
        <ele>309.68</ele>
        <time>2016-04-20T14:56:51Z</time>
      </trkpt>
      <trkpt lat="43.22243" lon="5.36541">
        <ele>311.12</ele>
        <time>2016-04-20T14:57:13Z</time>
      </trkpt>
      <trkpt lat="43.22246" lon="5.36536">
        <ele>310.64</ele>
        <time>2016-04-20T14:57:27Z</time>
      </trkpt>
      <trkpt lat="43.22249" lon="5.36533">
        <ele>310.64</ele>
        <time>2016-04-20T14:57:49Z</time>
      </trkpt>
      <trkpt lat="43.22251" lon="5.3653">
        <ele>312.57</ele>
        <time>2016-04-20T14:58:05Z</time>
      </trkpt>
      <trkpt lat="43.22253" lon="5.3653">
        <ele>313.53</ele>
        <time>2016-04-20T14:58:21Z</time>
      </trkpt>
      <trkpt lat="43.22255" lon="5.36528">
        <ele>316.41</ele>
        <time>2016-04-20T14:58:46Z</time>
      </trkpt>
      <trkpt lat="43.2226" lon="5.36521">
        <ele>319.78</ele>
        <time>2016-04-20T14:59:02Z</time>
      </trkpt>
      <trkpt lat="43.22263" lon="5.36515">
        <ele>323.14</ele>
        <time>2016-04-20T14:59:18Z</time>
      </trkpt>
      <trkpt lat="43.22266" lon="5.36509">
        <ele>324.1</ele>
        <time>2016-04-20T14:59:22Z</time>
      </trkpt>
      <trkpt lat="43.22272" lon="5.36504">
        <ele>326.99</ele>
        <time>2016-04-20T14:59:29Z</time>
      </trkpt>
      <trkpt lat="43.22273" lon="5.36496">
        <ele>330.83</ele>
        <time>2016-04-20T14:59:42Z</time>
      </trkpt>
      <trkpt lat="43.22273" lon="5.36496">
        <ele>331.31</ele>
        <time>2016-04-20T14:59:44Z</time>
      </trkpt>
      <trkpt lat="43.22274" lon="5.36485">
        <ele>333.23</ele>
        <time>2016-04-20T14:59:53Z</time>
      </trkpt>
      <trkpt lat="43.22274" lon="5.36482">
        <ele>334.2</ele>
        <time>2016-04-20T15:00:05Z</time>
      </trkpt>
      <trkpt lat="43.22275" lon="5.3647">
        <ele>337.08</ele>
        <time>2016-04-20T15:00:17Z</time>
      </trkpt>
      <trkpt lat="43.22277" lon="5.36466">
        <ele>338.52</ele>
        <time>2016-04-20T15:00:35Z</time>
      </trkpt>
      <trkpt lat="43.22277" lon="5.36467">
        <ele>338.52</ele>
        <time>2016-04-20T15:00:36Z</time>
      </trkpt>
      <trkpt lat="43.22281" lon="5.36469">
        <ele>339</ele>
        <time>2016-04-20T15:00:48Z</time>
      </trkpt>
      <trkpt lat="43.22287" lon="5.36471">
        <ele>341.41</ele>
        <time>2016-04-20T15:01:01Z</time>
      </trkpt>
      <trkpt lat="43.22292" lon="5.36468">
        <ele>341.89</ele>
        <time>2016-04-20T15:01:14Z</time>
      </trkpt>
      <trkpt lat="43.22298" lon="5.36456">
        <ele>343.81</ele>
        <time>2016-04-20T15:01:27Z</time>
      </trkpt>
      <trkpt lat="43.22299" lon="5.36452">
        <ele>345.73</ele>
        <time>2016-04-20T15:01:39Z</time>
      </trkpt>
      <trkpt lat="43.22298" lon="5.3645">
        <ele>347.17</ele>
        <time>2016-04-20T15:01:50Z</time>
      </trkpt>
      <trkpt lat="43.22297" lon="5.36446">
        <ele>348.62</ele>
        <time>2016-04-20T15:02:06Z</time>
      </trkpt>
      <trkpt lat="43.22296" lon="5.36444">
        <ele>350.06</ele>
        <time>2016-04-20T15:03:09Z</time>
      </trkpt>
      <trkpt lat="43.22294" lon="5.36434">
        <ele>351.5</ele>
        <time>2016-04-20T15:03:29Z</time>
      </trkpt>
      <trkpt lat="43.22295" lon="5.36432">
        <ele>352.46</ele>
        <time>2016-04-20T15:03:34Z</time>
      </trkpt>
      <trkpt lat="43.22296" lon="5.36426">
        <ele>354.38</ele>
        <time>2016-04-20T15:03:44Z</time>
      </trkpt>
      <trkpt lat="43.22296" lon="5.36421">
        <ele>356.79</ele>
        <time>2016-04-20T15:04:03Z</time>
      </trkpt>
      <trkpt lat="43.223" lon="5.36415">
        <ele>357.27</ele>
        <time>2016-04-20T15:04:13Z</time>
      </trkpt>
      <trkpt lat="43.22301" lon="5.36414">
        <ele>357.75</ele>
        <time>2016-04-20T15:04:15Z</time>
      </trkpt>
      <trkpt lat="43.22304" lon="5.36412">
        <ele>357.75</ele>
        <time>2016-04-20T15:04:19Z</time>
      </trkpt>
      <trkpt lat="43.22314" lon="5.36401">
        <ele>358.23</ele>
        <time>2016-04-20T15:04:33Z</time>
      </trkpt>
      <trkpt lat="43.22322" lon="5.36392">
        <ele>358.71</ele>
        <time>2016-04-20T15:04:46Z</time>
      </trkpt>
      <trkpt lat="43.22321" lon="5.36393">
        <ele>358.23</ele>
        <time>2016-04-20T15:04:48Z</time>
      </trkpt>
      <trkpt lat="43.22329" lon="5.36399">
        <ele>357.27</ele>
        <time>2016-04-20T15:05:02Z</time>
      </trkpt>
      <trkpt lat="43.22337" lon="5.364">
        <ele>355.83</ele>
        <time>2016-04-20T15:05:14Z</time>
      </trkpt>
      <trkpt lat="43.22339" lon="5.36394">
        <ele>354.86</ele>
        <time>2016-04-20T15:05:22Z</time>
      </trkpt>
      <trkpt lat="43.22335" lon="5.36389">
        <ele>353.9</ele>
        <time>2016-04-20T15:05:30Z</time>
      </trkpt>
      <trkpt lat="43.2233" lon="5.36375">
        <ele>350.54</ele>
        <time>2016-04-20T15:05:41Z</time>
      </trkpt>
      <trkpt lat="43.22328" lon="5.36365">
        <ele>347.65</ele>
        <time>2016-04-20T15:05:53Z</time>
      </trkpt>
      <trkpt lat="43.22329" lon="5.36363">
        <ele>344.77</ele>
        <time>2016-04-20T15:06:05Z</time>
      </trkpt>
      <trkpt lat="43.2233" lon="5.36363">
        <ele>344.77</ele>
        <time>2016-04-20T15:06:06Z</time>
      </trkpt>
      <trkpt lat="43.22335" lon="5.3637">
        <ele>343.33</ele>
        <time>2016-04-20T15:06:13Z</time>
      </trkpt>
      <trkpt lat="43.22343" lon="5.36371">
        <ele>339.96</ele>
        <time>2016-04-20T15:06:28Z</time>
      </trkpt>
      <trkpt lat="43.2234" lon="5.3637">
        <ele>338.52</ele>
        <time>2016-04-20T15:06:34Z</time>
      </trkpt>
      <trkpt lat="43.22342" lon="5.36366">
        <ele>336.12</ele>
        <time>2016-04-20T15:06:48Z</time>
      </trkpt>
      <trkpt lat="43.22345" lon="5.36365">
        <ele>334.68</ele>
        <time>2016-04-20T15:07:02Z</time>
      </trkpt>
      <trkpt lat="43.22346" lon="5.36361">
        <ele>333.23</ele>
        <time>2016-04-20T15:07:17Z</time>
      </trkpt>
      <trkpt lat="43.22348" lon="5.36356">
        <ele>331.79</ele>
        <time>2016-04-20T15:07:31Z</time>
      </trkpt>
      <trkpt lat="43.22348" lon="5.36354">
        <ele>330.83</ele>
        <time>2016-04-20T15:07:45Z</time>
      </trkpt>
      <trkpt lat="43.22346" lon="5.36345">
        <ele>329.39</ele>
        <time>2016-04-20T15:07:58Z</time>
      </trkpt>
      <trkpt lat="43.22345" lon="5.36334">
        <ele>326.99</ele>
        <time>2016-04-20T15:08:09Z</time>
      </trkpt>
      <trkpt lat="43.22346" lon="5.36331">
        <ele>326.5</ele>
        <time>2016-04-20T15:08:12Z</time>
      </trkpt>
      <trkpt lat="43.2235" lon="5.3632">
        <ele>325.54</ele>
        <time>2016-04-20T15:08:22Z</time>
      </trkpt>
      <trkpt lat="43.22348" lon="5.36306">
        <ele>323.62</ele>
        <time>2016-04-20T15:08:32Z</time>
      </trkpt>
      <trkpt lat="43.22351" lon="5.36289">
        <ele>318.81</ele>
        <time>2016-04-20T15:08:44Z</time>
      </trkpt>
      <trkpt lat="43.22353" lon="5.3628">
        <ele>314.49</ele>
        <time>2016-04-20T15:08:52Z</time>
      </trkpt>
      <trkpt lat="43.22354" lon="5.36273">
        <ele>313.05</ele>
        <time>2016-04-20T15:08:56Z</time>
      </trkpt>
      <trkpt lat="43.22352" lon="5.36257">
        <ele>307.76</ele>
        <time>2016-04-20T15:09:08Z</time>
      </trkpt>
      <trkpt lat="43.22351" lon="5.36251">
        <ele>306.32</ele>
        <time>2016-04-20T15:09:12Z</time>
      </trkpt>
      <trkpt lat="43.22356" lon="5.36233">
        <ele>301.51</ele>
        <time>2016-04-20T15:09:23Z</time>
      </trkpt>
      <trkpt lat="43.2236" lon="5.36221">
        <ele>299.11</ele>
        <time>2016-04-20T15:09:35Z</time>
      </trkpt>
      <trkpt lat="43.22368" lon="5.36209">
        <ele>299.11</ele>
        <time>2016-04-20T15:09:48Z</time>
      </trkpt>
      <trkpt lat="43.22373" lon="5.362">
        <ele>298.15</ele>
        <time>2016-04-20T15:09:56Z</time>
      </trkpt>
      <trkpt lat="43.22383" lon="5.36197">
        <ele>299.11</ele>
        <time>2016-04-20T15:10:07Z</time>
      </trkpt>
      <trkpt lat="43.22387" lon="5.36191">
        <ele>299.59</ele>
        <time>2016-04-20T15:10:18Z</time>
      </trkpt>
      <trkpt lat="43.2239" lon="5.3619">
        <ele>299.59</ele>
        <time>2016-04-20T15:10:21Z</time>
      </trkpt>
      <trkpt lat="43.22393" lon="5.3619">
        <ele>300.07</ele>
        <time>2016-04-20T15:10:24Z</time>
      </trkpt>
      <trkpt lat="43.22396" lon="5.36189">
        <ele>300.07</ele>
        <time>2016-04-20T15:10:26Z</time>
      </trkpt>
      <trkpt lat="43.22399" lon="5.36186">
        <ele>300.55</ele>
        <time>2016-04-20T15:10:29Z</time>
      </trkpt>
      <trkpt lat="43.224" lon="5.36177">
        <ele>299.59</ele>
        <time>2016-04-20T15:10:38Z</time>
      </trkpt>
      <trkpt lat="43.22393" lon="5.36166">
        <ele>295.74</ele>
        <time>2016-04-20T15:10:52Z</time>
      </trkpt>
      <trkpt lat="43.22392" lon="5.36163">
        <ele>294.78</ele>
        <time>2016-04-20T15:11:06Z</time>
      </trkpt>
      <trkpt lat="43.22393" lon="5.36158">
        <ele>294.3</ele>
        <time>2016-04-20T15:11:13Z</time>
      </trkpt>
      <trkpt lat="43.224" lon="5.36141">
        <ele>290.46</ele>
        <time>2016-04-20T15:11:29Z</time>
      </trkpt>
      <trkpt lat="43.22408" lon="5.36126">
        <ele>289.49</ele>
        <time>2016-04-20T15:11:41Z</time>
      </trkpt>
      <trkpt lat="43.22409" lon="5.3612">
        <ele>288.53</ele>
        <time>2016-04-20T15:11:47Z</time>
      </trkpt>
      <trkpt lat="43.22413" lon="5.36111">
        <ele>287.09</ele>
        <time>2016-04-20T15:11:52Z</time>
      </trkpt>
      <trkpt lat="43.22422" lon="5.36104">
        <ele>284.69</ele>
        <time>2016-04-20T15:12:02Z</time>
      </trkpt>
      <trkpt lat="43.22422" lon="5.361">
        <ele>283.73</ele>
        <time>2016-04-20T15:12:05Z</time>
      </trkpt>
      <trkpt lat="43.22419" lon="5.36085">
        <ele>279.88</ele>
        <time>2016-04-20T15:12:20Z</time>
      </trkpt>
      <trkpt lat="43.22419" lon="5.36085">
        <ele>279.88</ele>
        <time>2016-04-20T15:12:21Z</time>
      </trkpt>
      <trkpt lat="43.2242" lon="5.36083">
        <ele>280.36</ele>
        <time>2016-04-20T15:12:24Z</time>
      </trkpt>
      <trkpt lat="43.22421" lon="5.36081">
        <ele>280.36</ele>
        <time>2016-04-20T15:12:26Z</time>
      </trkpt>
      <trkpt lat="43.2242" lon="5.36074">
        <ele>279.88</ele>
        <time>2016-04-20T15:12:33Z</time>
      </trkpt>
      <trkpt lat="43.22425" lon="5.36068">
        <ele>278.92</ele>
        <time>2016-04-20T15:12:39Z</time>
      </trkpt>
      <trkpt lat="43.22431" lon="5.36056">
        <ele>278.44</ele>
        <time>2016-04-20T15:12:47Z</time>
      </trkpt>
      <trkpt lat="43.22439" lon="5.36047">
        <ele>279.4</ele>
        <time>2016-04-20T15:12:58Z</time>
      </trkpt>
      <trkpt lat="43.22442" lon="5.36047">
        <ele>279.4</ele>
        <time>2016-04-20T15:13:00Z</time>
      </trkpt>
      <trkpt lat="43.2245" lon="5.36045">
        <ele>278.44</ele>
        <time>2016-04-20T15:13:06Z</time>
      </trkpt>
      <trkpt lat="43.22451" lon="5.36035">
        <ele>276.04</ele>
        <time>2016-04-20T15:13:23Z</time>
      </trkpt>
      <trkpt lat="43.22451" lon="5.36035">
        <ele>276.04</ele>
        <time>2016-04-20T15:13:29Z</time>
      </trkpt>
      <trkpt lat="43.22455" lon="5.36032">
        <ele>276.04</ele>
        <time>2016-04-20T15:13:34Z</time>
      </trkpt>
      <trkpt lat="43.22464" lon="5.36029">
        <ele>275.56</ele>
        <time>2016-04-20T15:13:46Z</time>
      </trkpt>
      <trkpt lat="43.22473" lon="5.36023">
        <ele>275.07</ele>
        <time>2016-04-20T15:13:59Z</time>
      </trkpt>
      <trkpt lat="43.22479" lon="5.3602">
        <ele>276.04</ele>
        <time>2016-04-20T15:14:12Z</time>
      </trkpt>
      <trkpt lat="43.22481" lon="5.36018">
        <ele>277</ele>
        <time>2016-04-20T15:14:15Z</time>
      </trkpt>
      <trkpt lat="43.22487" lon="5.36006">
        <ele>276.52</ele>
        <time>2016-04-20T15:14:30Z</time>
      </trkpt>
      <trkpt lat="43.22487" lon="5.36007">
        <ele>276.52</ele>
        <time>2016-04-20T15:14:32Z</time>
      </trkpt>
      <trkpt lat="43.2249" lon="5.36014">
        <ele>276.52</ele>
        <time>2016-04-20T15:14:47Z</time>
      </trkpt>
      <trkpt lat="43.22494" lon="5.36022">
        <ele>275.07</ele>
        <time>2016-04-20T15:14:58Z</time>
      </trkpt>
      <trkpt lat="43.22498" lon="5.36016">
        <ele>274.59</ele>
        <time>2016-04-20T15:15:10Z</time>
      </trkpt>
      <trkpt lat="43.22498" lon="5.36015">
        <ele>274.59</ele>
        <time>2016-04-20T15:15:12Z</time>
      </trkpt>
      <trkpt lat="43.22504" lon="5.36008">
        <ele>272.19</ele>
        <time>2016-04-20T15:15:25Z</time>
      </trkpt>
      <trkpt lat="43.22505" lon="5.36007">
        <ele>272.19</ele>
        <time>2016-04-20T15:15:26Z</time>
      </trkpt>
      <trkpt lat="43.22513" lon="5.35995">
        <ele>268.83</ele>
        <time>2016-04-20T15:15:42Z</time>
      </trkpt>
      <trkpt lat="43.22515" lon="5.35991">
        <ele>268.35</ele>
        <time>2016-04-20T15:15:44Z</time>
      </trkpt>
      <trkpt lat="43.22517" lon="5.35985">
        <ele>266.9</ele>
        <time>2016-04-20T15:15:58Z</time>
      </trkpt>
      <trkpt lat="43.22523" lon="5.35968">
        <ele>264.5</ele>
        <time>2016-04-20T15:16:08Z</time>
      </trkpt>
      <trkpt lat="43.22526" lon="5.35965">
        <ele>264.02</ele>
        <time>2016-04-20T15:16:11Z</time>
      </trkpt>
      <trkpt lat="43.22531" lon="5.35954">
        <ele>264.98</ele>
        <time>2016-04-20T15:16:21Z</time>
      </trkpt>
      <trkpt lat="43.22536" lon="5.35952">
        <ele>262.58</ele>
        <time>2016-04-20T15:16:32Z</time>
      </trkpt>
      <trkpt lat="43.22541" lon="5.35946">
        <ele>259.21</ele>
        <time>2016-04-20T15:16:44Z</time>
      </trkpt>
      <trkpt lat="43.22543" lon="5.35943">
        <ele>258.25</ele>
        <time>2016-04-20T15:16:47Z</time>
      </trkpt>
      <trkpt lat="43.22548" lon="5.35931">
        <ele>256.81</ele>
        <time>2016-04-20T15:16:58Z</time>
      </trkpt>
      <trkpt lat="43.22553" lon="5.35923">
        <ele>251.52</ele>
        <time>2016-04-20T15:17:11Z</time>
      </trkpt>
      <trkpt lat="43.22552" lon="5.35922">
        <ele>250.56</ele>
        <time>2016-04-20T15:17:28Z</time>
      </trkpt>
      <trkpt lat="43.22551" lon="5.35922">
        <ele>250.56</ele>
        <time>2016-04-20T15:18:01Z</time>
      </trkpt>
      <trkpt lat="43.22554" lon="5.35921">
        <ele>249.6</ele>
        <time>2016-04-20T15:18:12Z</time>
      </trkpt>
      <trkpt lat="43.22557" lon="5.35923">
        <ele>247.68</ele>
        <time>2016-04-20T15:18:25Z</time>
      </trkpt>
      <trkpt lat="43.22558" lon="5.35924">
        <ele>246.72</ele>
        <time>2016-04-20T15:18:49Z</time>
      </trkpt>
      <trkpt lat="43.22559" lon="5.35924">
        <ele>246.23</ele>
        <time>2016-04-20T15:19:18Z</time>
      </trkpt>
      <trkpt lat="43.22567" lon="5.35932">
        <ele>242.87</ele>
        <time>2016-04-20T15:19:37Z</time>
      </trkpt>
      <trkpt lat="43.22569" lon="5.35935">
        <ele>241.91</ele>
        <time>2016-04-20T15:19:50Z</time>
      </trkpt>
      <trkpt lat="43.2257" lon="5.35935">
        <ele>241.43</ele>
        <time>2016-04-20T15:20:09Z</time>
      </trkpt>
      <trkpt lat="43.2258" lon="5.35933">
        <ele>234.22</ele>
        <time>2016-04-20T15:20:35Z</time>
      </trkpt>
      <trkpt lat="43.22581" lon="5.3593">
        <ele>233.26</ele>
        <time>2016-04-20T15:20:38Z</time>
      </trkpt>
      <trkpt lat="43.22586" lon="5.35929">
        <ele>230.85</ele>
        <time>2016-04-20T15:20:43Z</time>
      </trkpt>
      <trkpt lat="43.22595" lon="5.35929">
        <ele>227.49</ele>
        <time>2016-04-20T15:20:55Z</time>
      </trkpt>
      <trkpt lat="43.22599" lon="5.35916">
        <ele>221.72</ele>
        <time>2016-04-20T15:21:06Z</time>
      </trkpt>
      <trkpt lat="43.22602" lon="5.35902">
        <ele>219.8</ele>
        <time>2016-04-20T15:21:19Z</time>
      </trkpt>
      <trkpt lat="43.22601" lon="5.35896">
        <ele>217.4</ele>
        <time>2016-04-20T15:21:30Z</time>
      </trkpt>
      <trkpt lat="43.22601" lon="5.35892">
        <ele>216.43</ele>
        <time>2016-04-20T15:21:43Z</time>
      </trkpt>
      <trkpt lat="43.226" lon="5.35885">
        <ele>213.55</ele>
        <time>2016-04-20T15:22:08Z</time>
      </trkpt>
      <trkpt lat="43.226" lon="5.35884">
        <ele>212.59</ele>
        <time>2016-04-20T15:22:16Z</time>
      </trkpt>
      <trkpt lat="43.22593" lon="5.35879">
        <ele>211.15</ele>
        <time>2016-04-20T15:22:29Z</time>
      </trkpt>
      <trkpt lat="43.22592" lon="5.35877">
        <ele>210.67</ele>
        <time>2016-04-20T15:22:35Z</time>
      </trkpt>
      <trkpt lat="43.22587" lon="5.35871">
        <ele>209.7</ele>
        <time>2016-04-20T15:22:40Z</time>
      </trkpt>
      <trkpt lat="43.22586" lon="5.35868">
        <ele>209.22</ele>
        <time>2016-04-20T15:22:43Z</time>
      </trkpt>
      <trkpt lat="43.22586" lon="5.35863">
        <ele>208.26</ele>
        <time>2016-04-20T15:22:57Z</time>
      </trkpt>
      <trkpt lat="43.22591" lon="5.35869">
        <ele>202.98</ele>
        <time>2016-04-20T15:23:14Z</time>
      </trkpt>
      <trkpt lat="43.22593" lon="5.35866">
        <ele>200.57</ele>
        <time>2016-04-20T15:23:19Z</time>
      </trkpt>
      <trkpt lat="43.22592" lon="5.35859">
        <ele>198.17</ele>
        <time>2016-04-20T15:23:31Z</time>
      </trkpt>
      <trkpt lat="43.22589" lon="5.35848">
        <ele>193.84</ele>
        <time>2016-04-20T15:23:44Z</time>
      </trkpt>
      <trkpt lat="43.22593" lon="5.35842">
        <ele>190.48</ele>
        <time>2016-04-20T15:23:55Z</time>
      </trkpt>
      <trkpt lat="43.22597" lon="5.35827">
        <ele>190</ele>
        <time>2016-04-20T15:24:09Z</time>
      </trkpt>
      <trkpt lat="43.22596" lon="5.35818">
        <ele>186.63</ele>
        <time>2016-04-20T15:24:24Z</time>
      </trkpt>
      <trkpt lat="43.22596" lon="5.3581">
        <ele>180.87</ele>
        <time>2016-04-20T15:24:38Z</time>
      </trkpt>
      <trkpt lat="43.22596" lon="5.35809">
        <ele>180.87</ele>
        <time>2016-04-20T15:24:39Z</time>
      </trkpt>
      <trkpt lat="43.22594" lon="5.35803">
        <ele>179.9</ele>
        <time>2016-04-20T15:24:55Z</time>
      </trkpt>
      <trkpt lat="43.22594" lon="5.35789">
        <ele>176.06</ele>
        <time>2016-04-20T15:25:09Z</time>
      </trkpt>
      <trkpt lat="43.22596" lon="5.35775">
        <ele>174.62</ele>
        <time>2016-04-20T15:25:21Z</time>
      </trkpt>
      <trkpt lat="43.22598" lon="5.35762">
        <ele>169.33</ele>
        <time>2016-04-20T15:25:36Z</time>
      </trkpt>
      <trkpt lat="43.22595" lon="5.3575">
        <ele>165.48</ele>
        <time>2016-04-20T15:25:51Z</time>
      </trkpt>
      <trkpt lat="43.22595" lon="5.35737">
        <ele>163.56</ele>
        <time>2016-04-20T15:26:03Z</time>
      </trkpt>
      <trkpt lat="43.22595" lon="5.35728">
        <ele>160.2</ele>
        <time>2016-04-20T15:26:11Z</time>
      </trkpt>
      <trkpt lat="43.22594" lon="5.35717">
        <ele>155.87</ele>
        <time>2016-04-20T15:26:25Z</time>
      </trkpt>
      <trkpt lat="43.22599" lon="5.35704">
        <ele>153.95</ele>
        <time>2016-04-20T15:26:36Z</time>
      </trkpt>
      <trkpt lat="43.22605" lon="5.3569">
        <ele>149.62</ele>
        <time>2016-04-20T15:26:49Z</time>
      </trkpt>
      <trkpt lat="43.22605" lon="5.35679">
        <ele>146.74</ele>
        <time>2016-04-20T15:27:02Z</time>
      </trkpt>
      <trkpt lat="43.22605" lon="5.35665">
        <ele>145.3</ele>
        <time>2016-04-20T15:27:13Z</time>
      </trkpt>
      <trkpt lat="43.22608" lon="5.35658">
        <ele>143.37</ele>
        <time>2016-04-20T15:27:23Z</time>
      </trkpt>
      <trkpt lat="43.22612" lon="5.35662">
        <ele>143.37</ele>
        <time>2016-04-20T15:27:36Z</time>
      </trkpt>
      <trkpt lat="43.22616" lon="5.35663">
        <ele>141.45</ele>
        <time>2016-04-20T15:27:49Z</time>
      </trkpt>
      <trkpt lat="43.22619" lon="5.35661">
        <ele>139.53</ele>
        <time>2016-04-20T15:27:57Z</time>
      </trkpt>
      <trkpt lat="43.22621" lon="5.35655">
        <ele>137.61</ele>
        <time>2016-04-20T15:28:01Z</time>
      </trkpt>
      <trkpt lat="43.22623" lon="5.35646">
        <ele>134.72</ele>
        <time>2016-04-20T15:28:17Z</time>
      </trkpt>
      <trkpt lat="43.22627" lon="5.35641">
        <ele>129.43</ele>
        <time>2016-04-20T15:28:28Z</time>
      </trkpt>
      <trkpt lat="43.22634" lon="5.35635">
        <ele>127.99</ele>
        <time>2016-04-20T15:28:39Z</time>
      </trkpt>
      <trkpt lat="43.2264" lon="5.35632">
        <ele>127.99</ele>
        <time>2016-04-20T15:28:54Z</time>
      </trkpt>
      <trkpt lat="43.22643" lon="5.35631">
        <ele>125.59</ele>
        <time>2016-04-20T15:29:09Z</time>
      </trkpt>
      <trkpt lat="43.22648" lon="5.35634">
        <ele>125.11</ele>
        <time>2016-04-20T15:29:22Z</time>
      </trkpt>
      <trkpt lat="43.22653" lon="5.35634">
        <ele>123.19</ele>
        <time>2016-04-20T15:29:36Z</time>
      </trkpt>
      <trkpt lat="43.22658" lon="5.35642">
        <ele>121.26</ele>
        <time>2016-04-20T15:29:49Z</time>
      </trkpt>
      <trkpt lat="43.22663" lon="5.35646">
        <ele>119.34</ele>
        <time>2016-04-20T15:30:02Z</time>
      </trkpt>
      <trkpt lat="43.22673" lon="5.35641">
        <ele>115.5</ele>
        <time>2016-04-20T15:30:16Z</time>
      </trkpt>
      <trkpt lat="43.22676" lon="5.35637">
        <ele>114.05</ele>
        <time>2016-04-20T15:30:21Z</time>
      </trkpt>
      <trkpt lat="43.22682" lon="5.35624">
        <ele>107.81</ele>
        <time>2016-04-20T15:30:36Z</time>
      </trkpt>
      <trkpt lat="43.22689" lon="5.35612">
        <ele>101.56</ele>
        <time>2016-04-20T15:30:53Z</time>
      </trkpt>
      <trkpt lat="43.22688" lon="5.35607">
        <ele>100.11</ele>
        <time>2016-04-20T15:31:23Z</time>
      </trkpt>
      <trkpt lat="43.22684" lon="5.35594">
        <ele>98.67</ele>
        <time>2016-04-20T15:31:37Z</time>
      </trkpt>
      <trkpt lat="43.22687" lon="5.35583">
        <ele>97.23</ele>
        <time>2016-04-20T15:31:54Z</time>
      </trkpt>
      <trkpt lat="43.22692" lon="5.35577">
        <ele>95.79</ele>
        <time>2016-04-20T15:32:06Z</time>
      </trkpt>
      <trkpt lat="43.2269" lon="5.35568">
        <ele>93.39</ele>
        <time>2016-04-20T15:32:20Z</time>
      </trkpt>
      <trkpt lat="43.22691" lon="5.35556">
        <ele>90.5</ele>
        <time>2016-04-20T15:32:31Z</time>
      </trkpt>
      <trkpt lat="43.22691" lon="5.35555">
        <ele>90.5</ele>
        <time>2016-04-20T15:32:32Z</time>
      </trkpt>
      <trkpt lat="43.22687" lon="5.35545">
        <ele>88.1</ele>
        <time>2016-04-20T15:32:42Z</time>
      </trkpt>
      <trkpt lat="43.22692" lon="5.35529">
        <ele>85.21</ele>
        <time>2016-04-20T15:32:54Z</time>
      </trkpt>
      <trkpt lat="43.22699" lon="5.35519">
        <ele>84.25</ele>
        <time>2016-04-20T15:33:06Z</time>
      </trkpt>
      <trkpt lat="43.22709" lon="5.35506">
        <ele>80.41</ele>
        <time>2016-04-20T15:33:22Z</time>
      </trkpt>
      <trkpt lat="43.22709" lon="5.35505">
        <ele>79.93</ele>
        <time>2016-04-20T15:33:26Z</time>
      </trkpt>
      <trkpt lat="43.22715" lon="5.35505">
        <ele>77.52</ele>
        <time>2016-04-20T15:33:38Z</time>
      </trkpt>
      <trkpt lat="43.22718" lon="5.35515">
        <ele>74.64</ele>
        <time>2016-04-20T15:33:52Z</time>
      </trkpt>
      <trkpt lat="43.22721" lon="5.35507">
        <ele>72.24</ele>
        <time>2016-04-20T15:34:02Z</time>
      </trkpt>
      <trkpt lat="43.22725" lon="5.35511">
        <ele>70.79</ele>
        <time>2016-04-20T15:34:15Z</time>
      </trkpt>
      <trkpt lat="43.22732" lon="5.35526">
        <ele>69.35</ele>
        <time>2016-04-20T15:34:32Z</time>
      </trkpt>
      <trkpt lat="43.22739" lon="5.35533">
        <ele>66.47</ele>
        <time>2016-04-20T15:34:46Z</time>
      </trkpt>
      <trkpt lat="43.22755" lon="5.35538">
        <ele>65.03</ele>
        <time>2016-04-20T15:35:03Z</time>
      </trkpt>
      <trkpt lat="43.22767" lon="5.35534">
        <ele>61.18</ele>
        <time>2016-04-20T15:35:15Z</time>
      </trkpt>
      <trkpt lat="43.22779" lon="5.35525">
        <ele>59.26</ele>
        <time>2016-04-20T15:35:30Z</time>
      </trkpt>
      <trkpt lat="43.22781" lon="5.35524">
        <ele>58.78</ele>
        <time>2016-04-20T15:35:32Z</time>
      </trkpt>
      <trkpt lat="43.22784" lon="5.35522">
        <ele>58.78</ele>
        <time>2016-04-20T15:35:34Z</time>
      </trkpt>
      <trkpt lat="43.22789" lon="5.35512">
        <ele>55.89</ele>
        <time>2016-04-20T15:35:42Z</time>
      </trkpt>
      <trkpt lat="43.22788" lon="5.35505">
        <ele>53.97</ele>
        <time>2016-04-20T15:35:46Z</time>
      </trkpt>
      <trkpt lat="43.22791" lon="5.35493">
        <ele>52.05</ele>
        <time>2016-04-20T15:35:56Z</time>
      </trkpt>
      <trkpt lat="43.22794" lon="5.35492">
        <ele>51.57</ele>
        <time>2016-04-20T15:35:59Z</time>
      </trkpt>
      <trkpt lat="43.22798" lon="5.35492">
        <ele>52.05</ele>
        <time>2016-04-20T15:36:03Z</time>
      </trkpt>
      <trkpt lat="43.22803" lon="5.355">
        <ele>52.05</ele>
        <time>2016-04-20T15:36:09Z</time>
      </trkpt>
      <trkpt lat="43.22805" lon="5.35504">
        <ele>52.53</ele>
        <time>2016-04-20T15:36:13Z</time>
      </trkpt>
      <trkpt lat="43.22812" lon="5.35516">
        <ele>51.09</ele>
        <time>2016-04-20T15:36:27Z</time>
      </trkpt>
      <trkpt lat="43.22816" lon="5.35522">
        <ele>50.61</ele>
        <time>2016-04-20T15:36:33Z</time>
      </trkpt>
      <trkpt lat="43.22818" lon="5.35524">
        <ele>51.09</ele>
        <time>2016-04-20T15:36:35Z</time>
      </trkpt>
      <trkpt lat="43.22824" lon="5.35534">
        <ele>53.49</ele>
        <time>2016-04-20T15:36:46Z</time>
      </trkpt>
      <trkpt lat="43.22832" lon="5.35539">
        <ele>52.05</ele>
        <time>2016-04-20T15:36:57Z</time>
      </trkpt>
      <trkpt lat="43.22851" lon="5.35538">
        <ele>51.09</ele>
        <time>2016-04-20T15:37:11Z</time>
      </trkpt>
      <trkpt lat="43.22862" lon="5.3553">
        <ele>50.61</ele>
        <time>2016-04-20T15:37:22Z</time>
      </trkpt>
      <trkpt lat="43.22874" lon="5.35521">
        <ele>46.76</ele>
        <time>2016-04-20T15:37:35Z</time>
      </trkpt>
      <trkpt lat="43.22886" lon="5.35516">
        <ele>45.32</ele>
        <time>2016-04-20T15:37:47Z</time>
      </trkpt>
      <trkpt lat="43.22897" lon="5.35506">
        <ele>43.88</ele>
        <time>2016-04-20T15:37:58Z</time>
      </trkpt>
      <trkpt lat="43.22907" lon="5.35491">
        <ele>40.51</ele>
        <time>2016-04-20T15:38:10Z</time>
      </trkpt>
      <trkpt lat="43.22916" lon="5.3548">
        <ele>38.59</ele>
        <time>2016-04-20T15:38:21Z</time>
      </trkpt>
      <trkpt lat="43.22929" lon="5.35478">
        <ele>36.19</ele>
        <time>2016-04-20T15:38:34Z</time>
      </trkpt>
      <trkpt lat="43.22942" lon="5.35483">
        <ele>34.26</ele>
        <time>2016-04-20T15:38:46Z</time>
      </trkpt>
      <trkpt lat="43.22952" lon="5.3548">
        <ele>35.23</ele>
        <time>2016-04-20T15:38:57Z</time>
      </trkpt>
      <trkpt lat="43.22961" lon="5.35468">
        <ele>33.78</ele>
        <time>2016-04-20T15:39:09Z</time>
      </trkpt>
      <trkpt lat="43.22963" lon="5.35464">
        <ele>33.3</ele>
        <time>2016-04-20T15:39:11Z</time>
      </trkpt>
      <trkpt lat="43.22963" lon="5.3546">
        <ele>32.82</ele>
        <time>2016-04-20T15:39:13Z</time>
      </trkpt>
      <trkpt lat="43.22964" lon="5.35454">
        <ele>32.34</ele>
        <time>2016-04-20T15:39:17Z</time>
      </trkpt>
      <trkpt lat="43.22964" lon="5.35449">
        <ele>31.86</ele>
        <time>2016-04-20T15:39:20Z</time>
      </trkpt>
      <trkpt lat="43.22966" lon="5.35444">
        <ele>31.86</ele>
        <time>2016-04-20T15:39:23Z</time>
      </trkpt>
      <trkpt lat="43.22972" lon="5.35448">
        <ele>31.38</ele>
        <time>2016-04-20T15:39:31Z</time>
      </trkpt>
      <trkpt lat="43.22976" lon="5.35454">
        <ele>30.42</ele>
        <time>2016-04-20T15:39:36Z</time>
      </trkpt>
      <trkpt lat="43.22985" lon="5.35463">
        <ele>25.61</ele>
        <time>2016-04-20T15:39:48Z</time>
      </trkpt>
      <trkpt lat="43.22993" lon="5.35472">
        <ele>25.61</ele>
        <time>2016-04-20T15:39:59Z</time>
      </trkpt>
      <trkpt lat="43.22996" lon="5.35476">
        <ele>25.61</ele>
        <time>2016-04-20T15:40:04Z</time>
      </trkpt>
      <trkpt lat="43.23004" lon="5.35482">
        <ele>25.13</ele>
        <time>2016-04-20T15:40:11Z</time>
      </trkpt>
      <trkpt lat="43.23023" lon="5.35475">
        <ele>23.21</ele>
        <time>2016-04-20T15:40:24Z</time>
      </trkpt>
      <trkpt lat="43.23032" lon="5.35478">
        <ele>22.73</ele>
        <time>2016-04-20T15:40:35Z</time>
      </trkpt>
      <trkpt lat="43.23034" lon="5.35478">
        <ele>22.73</ele>
        <time>2016-04-20T15:40:36Z</time>
      </trkpt>
      <trkpt lat="43.23037" lon="5.35475">
        <ele>22.73</ele>
        <time>2016-04-20T15:40:39Z</time>
      </trkpt>
      <trkpt lat="43.23041" lon="5.35467">
        <ele>22.73</ele>
        <time>2016-04-20T15:40:48Z</time>
      </trkpt>
      <trkpt lat="43.23054" lon="5.35463">
        <ele>19.84</ele>
        <time>2016-04-20T15:40:59Z</time>
      </trkpt>
      <trkpt lat="43.23065" lon="5.35465">
        <ele>18.4</ele>
        <time>2016-04-20T15:41:10Z</time>
      </trkpt>
    </trkseg>
  </trk>
</gpx>